Time,TemperatureF,DewpointF,PressureIn,WindDirection,WindDirectionDegrees,WindSpeedMPH,WindSpeedGustMPH,Humidity,HourlyPrecipIn,Conditions,Clouds,dailyrainin,SoftwareType,DateUTC
2013-06-12 00:00:00,71.9,67.2,29.06,West,262,0.0,5.0,85,0.00,,,0.01,WUHU216DAVISVP2,2013-06-12 04:00:00,
2013-06-12 00:01:00,71.9,67.2,29.06,West,262,0.0,5.0,85,0.00,,,0.01,WUHU216DAVISVP2,2013-06-12 04:01:00,
2013-06-12 00:06:00,71.9,67.5,29.06,West,262,0.0,5.0,86,0.00,,,0.01,WUHU216DAVISVP2,2013-06-12 04:06:00,
2013-06-12 00:07:00,71.9,67.5,29.06,West,262,1.0,5.0,86,0.00,,,0.01,WUHU216DAVISVP2,2013-06-12 04:07:00,
2013-06-12 00:11:00,71.8,67.4,29.06,West,262,0.0,5.0,86,0.00,,,0.01,WUHU216DAVISVP2,2013-06-12 04:11:00,
2013-06-12 00:12:00,71.8,67.4,29.06,West,262,0.0,5.0,86,0.00,,,0.00,WUHU216DAVISVP2,2013-06-12 04:12:00,
2013-06-12 00:16:00,71.8,67.4,29.06,West,262,0.0,4.0,86,0.00,,,0.00,WUHU216DAVISVP2,2013-06-12 04:16:00,
2013-06-12 00:17:00,71.8,67.4,29.06,West,262,0.0,4.0,86,0.00,,,0.00,WUHU216DAVISVP2,2013-06-12 04:17:00,
2013-06-12 00:21:00,71.7,67.3,29.05,West,262,0.0,4.0,86,0.00,,,0.00,WUHU216DAVISVP2,2013-06-12 04:21:00,
2013-06-12 00:22:00,71.7,67.3,29.05,West,262,0.0,4.0,86,0.00,,,0.00,WUHU216DAVISVP2,2013-06-12 04:22:00,
2013-06-12 00:23:00,71.6,67.2,29.05,West,262,0.0,4.0,86,0.00,,,0.00,WUHU216DAVISVP2,2013-06-12 04:23:00,
2013-06-12 00:26:00,71.4,67.0,29.05,West,262,0.0,1.0,86,0.00,,,0.00,WUHU216DAVISVP2,2013-06-12 04:26:00,
2013-06-12 00:27:00,71.3,66.9,29.05,West,262,0.0,1.0,86,0.00,,,0.00,WUHU216DAVISVP2,2013-06-12 04:27:00,
2013-06-12 00:28:00,71.3,66.9,29.05,West,262,0.0,1.0,86,0.00,,,0.00,WUHU216DAVISVP2,2013-06-12 04:28:00,
2013-06-12 00:32:00,70.9,66.8,29.05,West,262,0.0,1.0,87,0.00,,,0.00,WUHU216DAVISVP2,2013-06-12 04:32:00,
2013-06-12 00:33:00,70.8,66.7,29.05,West,262,0.0,1.0,87,0.00,,,0.00,WUHU216DAVISVP2,2013-06-12 04:33:00,
2013-06-12 00:37:00,70.6,66.9,29.05,West,262,0.0,1.0,88,0.00,,,0.00,WUHU216DAVISVP2,2013-06-12 04:37:00,
2013-06-12 00:38:00,70.5,66.8,29.05,West,262,0.0,1.0,88,0.00,,,0.00,WUHU216DAVISVP2,2013-06-12 04:38:00,
2013-06-12 00:42:00,70.3,66.9,29.04,West,262,0.0,0.0,89,0.00,,,0.00,WUHU216DAVISVP2,2013-06-12 04:42:00,
2013-06-12 00:43:00,70.3,66.9,29.05,West,262,0.0,0.0,89,0.00,,,0.00,WUHU216DAVISVP2,2013-06-12 04:43:00,
2013-06-12 00:47:00,70.2,66.8,29.05,West,262,0.0,0.0,89,0.00,,,0.00,WUHU216DAVISVP2,2013-06-12 04:47:00,
2013-06-12 00:48:00,70.2,66.8,29.05,West,262,0.0,0.0,89,0.00,,,0.00,WUHU216DAVISVP2,2013-06-12 04:48:00,
2013-06-12 00:52:00,70.1,66.7,29.05,West,262,0.0,0.0,89,0.00,,,0.00,WUHU216DAVISVP2,2013-06-12 04:52:00,
2013-06-12 00:53:00,70.1,66.7,29.05,West,262,0.0,0.0,89,0.00,,,0.00,WUHU216DAVISVP2,2013-06-12 04:53:00,
2013-06-12 00:54:00,70.1,66.7,29.05,West,262,0.0,0.0,89,0.00,,,0.00,WUHU216DAVISVP2,2013-06-12 04:54:00,
2013-06-12 00:57:00,70.0,66.9,29.05,West,262,0.0,0.0,90,0.00,,,0.00,WUHU216DAVISVP2,2013-06-12 04:57:00,
2013-06-12 00:58:00,70.0,66.9,29.05,West,262,0.0,0.0,90,0.00,,,0.00,WUHU216DAVISVP2,2013-06-12 04:58:00,
2013-06-12 00:59:00,70.0,66.9,29.05,West,262,0.0,0.0,90,0.00,,,0.00,WUHU216DAVISVP2,2013-06-12 04:59:00,
2013-06-12 01:02:00,69.9,66.8,29.05,West,262,0.0,0.0,90,0.00,,,0.00,WUHU216DAVISVP2,2013-06-12 05:02:00,
2013-06-12 01:03:00,69.9,66.8,29.05,West,262,0.0,0.0,90,0.00,,,0.00,WUHU216DAVISVP2,2013-06-12 05:03:00,
2013-06-12 01:04:00,69.9,66.8,29.05,West,262,0.0,0.0,90,0.00,,,0.00,WUHU216DAVISVP2,2013-06-12 05:04:00,
2013-06-12 01:08:00,70.0,66.9,29.06,West,262,0.0,0.0,90,0.00,,,0.00,WUHU216DAVISVP2,2013-06-12 05:08:00,
2013-06-12 01:09:00,70.0,66.9,29.06,West,262,0.0,0.0,90,0.00,,,0.00,WUHU216DAVISVP2,2013-06-12 05:09:00,
2013-06-12 01:13:00,69.9,66.8,29.05,West,262,0.0,0.0,90,0.00,,,0.00,WUHU216DAVISVP2,2013-06-12 05:13:00,
2013-06-12 01:14:00,69.9,66.8,29.05,West,262,0.0,0.0,90,0.00,,,0.00,WUHU216DAVISVP2,2013-06-12 05:14:00,
2013-06-12 01:18:00,69.7,66.6,29.05,West,262,0.0,0.0,90,0.00,,,0.00,WUHU216DAVISVP2,2013-06-12 05:18:00,
2013-06-12 01:19:00,69.7,66.6,29.05,West,262,0.0,0.0,90,0.00,,,0.00,WUHU216DAVISVP2,2013-06-12 05:19:00,
2013-06-12 01:20:00,69.7,66.6,29.05,West,262,0.0,0.0,90,0.00,,,0.00,WUHU216DAVISVP2,2013-06-12 05:20:00,
2013-06-12 01:23:00,69.4,66.3,29.05,West,262,0.0,1.0,90,0.00,,,0.00,WUHU216DAVISVP2,2013-06-12 05:23:00,
2013-06-12 01:24:00,69.3,66.2,29.05,West,262,0.0,1.0,90,0.00,,,0.00,WUHU216DAVISVP2,2013-06-12 05:24:00,
2013-06-12 01:25:00,69.3,66.2,29.05,West,262,0.0,1.0,90,0.00,,,0.00,WUHU216DAVISVP2,2013-06-12 05:25:00,
2013-06-12 01:29:00,69.1,66.3,29.04,West,262,1.0,4.0,91,0.00,,,0.00,WUHU216DAVISVP2,2013-06-12 05:29:00,
2013-06-12 01:30:00,69.0,66.2,29.04,West,262,2.0,4.0,91,0.00,,,0.00,WUHU216DAVISVP2,2013-06-12 05:30:00,
2013-06-12 01:34:00,68.8,66.0,29.04,West,262,0.0,4.0,91,0.00,,,0.00,WUHU216DAVISVP2,2013-06-12 05:34:00,
2013-06-12 01:35:00,68.8,66.0,29.04,West,262,0.0,4.0,91,0.00,,,0.00,WUHU216DAVISVP2,2013-06-12 05:35:00,
2013-06-12 01:36:00,68.8,66.0,29.04,West,262,0.0,4.0,91,0.00,,,0.00,WUHU216DAVISVP2,2013-06-12 05:36:00,
2013-06-12 01:40:00,68.7,66.3,29.04,West,262,0.0,4.0,92,0.00,,,0.00,WUHU216DAVISVP2,2013-06-12 05:40:00,
2013-06-12 01:41:00,68.6,66.2,29.04,West,262,0.0,4.0,92,0.00,,,0.00,WUHU216DAVISVP2,2013-06-12 05:41:00,
2013-06-12 01:45:00,68.6,66.2,29.04,West,262,0.0,4.0,92,0.00,,,0.00,WUHU216DAVISVP2,2013-06-12 05:45:00,
2013-06-12 01:46:00,68.6,66.2,29.04,West,262,0.0,4.0,92,0.00,,,0.00,WUHU216DAVISVP2,2013-06-12 05:46:00,
2013-06-12 01:50:00,68.7,66.6,29.04,West,262,0.0,2.0,93,0.00,,,0.00,WUHU216DAVISVP2,2013-06-12 05:50:00,
2013-06-12 01:51:00,68.6,66.5,29.04,West,262,0.0,2.0,93,0.00,,,0.00,WUHU216DAVISVP2,2013-06-12 05:51:00,
2013-06-12 01:55:00,68.6,66.5,29.04,West,262,0.0,2.0,93,0.00,,,0.00,WUHU216DAVISVP2,2013-06-12 05:55:00,
2013-06-12 01:56:00,68.6,66.5,29.04,West,262,0.0,2.0,93,0.00,,,0.00,WUHU216DAVISVP2,2013-06-12 05:56:00,
2013-06-12 02:00:00,68.7,66.6,29.03,West,262,0.0,2.0,93,0.00,,,0.00,WUHU216DAVISVP2,2013-06-12 06:00:00,
2013-06-12 02:01:00,68.7,66.6,29.03,West,262,2.0,2.0,93,0.00,,,0.00,WUHU216DAVISVP2,2013-06-12 06:01:00,
2013-06-12 02:02:00,68.7,66.6,29.03,West,262,1.0,2.0,93,0.00,,,0.00,WUHU216DAVISVP2,2013-06-12 06:02:00,
2013-06-12 02:05:00,68.8,66.7,29.03,West,262,0.0,4.0,93,0.00,,,0.00,WUHU216DAVISVP2,2013-06-12 06:05:00,
2013-06-12 02:06:00,68.8,66.7,29.03,West,262,0.0,4.0,93,0.00,,,0.00,WUHU216DAVISVP2,2013-06-12 06:06:00,
2013-06-12 02:08:00,68.8,66.7,29.03,West,262,0.0,4.0,93,0.00,,,0.00,WUHU216DAVISVP2,2013-06-12 06:08:00,
2013-06-12 02:10:00,68.9,66.8,29.03,West,262,0.0,4.0,93,0.00,,,0.00,WUHU216DAVISVP2,2013-06-12 06:10:00,
2013-06-12 02:11:00,68.9,66.8,29.03,West,262,0.0,4.0,93,0.00,,,0.00,WUHU216DAVISVP2,2013-06-12 06:11:00,
2013-06-12 02:12:00,68.9,66.8,29.03,West,262,0.0,4.0,93,0.00,,,0.00,WUHU216DAVISVP2,2013-06-12 06:12:00,
2013-06-12 02:13:00,68.9,66.8,29.03,West,262,0.0,4.0,93,0.00,,,0.00,WUHU216DAVISVP2,2013-06-12 06:13:00,
2013-06-12 02:15:00,68.9,66.8,29.04,West,262,0.0,4.0,93,0.00,,,0.00,WUHU216DAVISVP2,2013-06-12 06:15:00,
2013-06-12 02:16:00,68.9,66.8,29.04,West,262,0.0,4.0,93,0.00,,,0.00,WUHU216DAVISVP2,2013-06-12 06:16:00,
2013-06-12 02:17:00,68.9,66.8,29.04,West,262,0.0,4.0,93,0.00,,,0.00,WUHU216DAVISVP2,2013-06-12 06:17:00,
2013-06-12 02:19:00,68.9,66.8,29.04,West,262,0.0,4.0,93,0.00,,,0.00,WUHU216DAVISVP2,2013-06-12 06:19:00,
2013-06-12 02:21:00,69.0,66.9,29.04,West,262,0.0,4.0,93,0.00,,,0.00,WUHU216DAVISVP2,2013-06-12 06:21:00,
2013-06-12 02:22:00,69.0,66.9,29.04,West,262,0.0,4.0,93,0.00,,,0.00,WUHU216DAVISVP2,2013-06-12 06:22:00,
2013-06-12 02:24:00,69.0,66.9,29.03,West,262,0.0,2.0,93,0.00,,,0.00,WUHU216DAVISVP2,2013-06-12 06:24:00,
2013-06-12 02:26:00,68.8,66.4,29.03,West,262,0.0,2.0,92,0.00,,,0.00,WUHU216DAVISVP2,2013-06-12 06:26:00,
2013-06-12 02:27:00,68.8,66.4,29.03,West,262,0.0,2.0,92,0.00,,,0.00,WUHU216DAVISVP2,2013-06-12 06:27:00,
2013-06-12 02:29:00,68.8,66.4,29.03,West,262,0.0,1.0,92,0.00,,,0.00,WUHU216DAVISVP2,2013-06-12 06:29:00,
2013-06-12 02:31:00,68.8,66.7,29.03,West,262,0.0,1.0,93,0.00,,,0.00,WUHU216DAVISVP2,2013-06-12 06:31:00,
2013-06-12 02:32:00,68.8,66.4,29.03,West,262,0.0,1.0,92,0.00,,,0.00,WUHU216DAVISVP2,2013-06-12 06:32:00,
2013-06-12 02:34:00,68.8,66.4,29.02,West,262,0.0,1.0,92,0.00,,,0.00,WUHU216DAVISVP2,2013-06-12 06:34:00,
2013-06-12 02:36:00,68.6,66.2,29.03,West,262,0.0,1.0,92,0.00,,,0.00,WUHU216DAVISVP2,2013-06-12 06:36:00,
2013-06-12 02:37:00,68.6,66.2,29.03,West,262,0.0,1.0,92,0.00,,,0.00,WUHU216DAVISVP2,2013-06-12 06:37:00,
2013-06-12 02:39:00,68.6,66.2,29.03,West,262,0.0,1.0,92,0.00,,,0.00,WUHU216DAVISVP2,2013-06-12 06:39:00,
2013-06-12 02:42:00,68.6,66.5,29.03,West,262,0.0,1.0,93,0.00,,,0.00,WUHU216DAVISVP2,2013-06-12 06:42:00,
2013-06-12 02:44:00,68.6,66.5,29.03,West,262,0.0,1.0,93,0.00,,,0.00,WUHU216DAVISVP2,2013-06-12 06:44:00,
2013-06-12 02:47:00,68.5,66.1,29.02,West,262,0.0,1.0,92,0.00,,,0.00,WUHU216DAVISVP2,2013-06-12 06:47:00,
2013-06-12 02:48:00,68.5,66.1,29.02,West,262,0.0,1.0,92,0.00,,,0.00,WUHU216DAVISVP2,2013-06-12 06:48:00,
2013-06-12 02:50:00,68.4,66.0,29.02,West,262,0.0,1.0,92,0.00,,,0.00,WUHU216DAVISVP2,2013-06-12 06:50:00,
2013-06-12 02:52:00,68.3,65.9,29.03,West,262,0.0,1.0,92,0.00,,,0.00,WUHU216DAVISVP2,2013-06-12 06:52:00,
2013-06-12 02:53:00,68.2,65.8,29.03,West,262,0.0,1.0,92,0.00,,,0.00,WUHU216DAVISVP2,2013-06-12 06:53:00,
2013-06-12 02:55:00,68.1,65.7,29.03,West,262,0.0,1.0,92,0.00,,,0.00,WUHU216DAVISVP2,2013-06-12 06:55:00,
2013-06-12 02:57:00,68.1,66.0,29.03,West,262,0.0,1.0,93,0.00,,,0.00,WUHU216DAVISVP2,2013-06-12 06:57:00,
2013-06-12 02:59:00,68.1,66.0,29.03,West,262,0.0,1.0,93,0.00,,,0.00,WUHU216DAVISVP2,2013-06-12 06:59:00,
2013-06-12 03:00:00,68.1,66.0,29.04,West,262,0.0,1.0,93,0.00,,,0.00,WUHU216DAVISVP2,2013-06-12 07:00:00,
2013-06-12 03:02:00,68.1,66.0,29.04,West,262,0.0,1.0,93,0.00,,,0.00,WUHU216DAVISVP2,2013-06-12 07:02:00,
2013-06-12 03:03:00,68.1,66.0,29.04,West,262,0.0,1.0,93,0.00,,,0.00,WUHU216DAVISVP2,2013-06-12 07:03:00,
2013-06-12 03:04:00,68.1,66.0,29.04,West,262,0.0,1.0,93,0.00,,,0.00,WUHU216DAVISVP2,2013-06-12 07:04:00,
2013-06-12 03:06:00,68.2,66.1,29.04,West,262,0.0,0.0,93,0.00,,,0.00,WUHU216DAVISVP2,2013-06-12 07:06:00,
2013-06-12 03:07:00,68.2,66.1,29.04,West,262,0.0,0.0,93,0.00,,,0.00,WUHU216DAVISVP2,2013-06-12 07:07:00,
2013-06-12 03:08:00,68.2,66.1,29.04,West,262,0.0,0.0,93,0.00,,,0.00,WUHU216DAVISVP2,2013-06-12 07:08:00,
2013-06-12 03:09:00,68.2,66.1,29.04,West,262,0.0,0.0,93,0.00,,,0.00,WUHU216DAVISVP2,2013-06-12 07:09:00,
2013-06-12 03:11:00,68.3,66.2,29.04,West,262,0.0,0.0,93,0.00,,,0.00,WUHU216DAVISVP2,2013-06-12 07:11:00,
2013-06-12 03:12:00,68.3,66.2,29.04,West,262,0.0,0.0,93,0.00,,,0.00,WUHU216DAVISVP2,2013-06-12 07:12:00,
2013-06-12 03:13:00,68.3,66.2,29.04,West,262,0.0,0.0,93,0.00,,,0.00,WUHU216DAVISVP2,2013-06-12 07:13:00,
2013-06-12 03:14:00,68.3,66.2,29.04,West,262,0.0,0.0,93,0.00,,,0.00,WUHU216DAVISVP2,2013-06-12 07:14:00,
2013-06-12 03:16:00,68.3,66.2,29.04,West,262,0.0,0.0,93,0.00,,,0.00,WUHU216DAVISVP2,2013-06-12 07:16:00,
2013-06-12 03:18:00,68.3,66.2,29.04,West,262,0.0,0.0,93,0.00,,,0.00,WUHU216DAVISVP2,2013-06-12 07:18:00,
2013-06-12 03:19:00,68.3,66.2,29.04,West,262,0.0,0.0,93,0.00,,,0.00,WUHU216DAVISVP2,2013-06-12 07:19:00,
2013-06-12 03:21:00,68.3,66.2,29.03,West,262,0.0,0.0,93,0.00,,,0.00,WUHU216DAVISVP2,2013-06-12 07:21:00,
2013-06-12 03:23:00,68.4,66.6,29.04,West,262,0.0,0.0,94,0.00,,,0.00,WUHU216DAVISVP2,2013-06-12 07:23:00,
2013-06-12 03:24:00,68.4,66.6,29.03,West,262,0.0,0.0,94,0.00,,,0.00,WUHU216DAVISVP2,2013-06-12 07:24:00,
2013-06-12 03:26:00,68.4,66.3,29.04,West,262,0.0,0.0,93,0.00,,,0.00,WUHU216DAVISVP2,2013-06-12 07:26:00,
2013-06-12 03:28:00,68.4,66.3,29.04,West,262,0.0,0.0,93,0.00,,,0.00,WUHU216DAVISVP2,2013-06-12 07:28:00,
2013-06-12 03:29:00,68.4,66.3,29.04,West,262,0.0,0.0,93,0.00,,,0.00,WUHU216DAVISVP2,2013-06-12 07:29:00,
2013-06-12 03:32:00,68.5,66.4,29.04,West,262,0.0,0.0,93,0.00,,,0.00,WUHU216DAVISVP2,2013-06-12 07:32:00,
2013-06-12 03:33:00,68.5,66.4,29.04,West,262,0.0,0.0,93,0.00,,,0.00,WUHU216DAVISVP2,2013-06-12 07:33:00,
2013-06-12 03:34:00,68.5,66.4,29.04,West,262,0.0,0.0,93,0.00,,,0.00,WUHU216DAVISVP2,2013-06-12 07:34:00,
2013-06-12 03:37:00,68.5,66.4,29.04,West,262,0.0,0.0,93,0.00,,,0.00,WUHU216DAVISVP2,2013-06-12 07:37:00,
2013-06-12 03:38:00,68.5,66.4,29.04,West,262,0.0,0.0,93,0.00,,,0.00,WUHU216DAVISVP2,2013-06-12 07:38:00,
2013-06-12 03:39:00,68.5,66.4,29.04,West,262,0.0,0.0,93,0.00,,,0.00,WUHU216DAVISVP2,2013-06-12 07:39:00,
2013-06-12 03:40:00,68.6,66.5,29.04,West,262,0.0,0.0,93,0.00,,,0.00,WUHU216DAVISVP2,2013-06-12 07:40:00,
2013-06-12 03:42:00,68.6,66.5,29.04,West,262,0.0,0.0,93,0.00,,,0.00,WUHU216DAVISVP2,2013-06-12 07:42:00,
2013-06-12 03:43:00,68.7,66.9,29.04,West,262,0.0,0.0,94,0.00,,,0.00,WUHU216DAVISVP2,2013-06-12 07:43:00,
2013-06-12 03:44:00,68.7,66.9,29.04,West,262,0.0,0.0,94,0.00,,,0.00,WUHU216DAVISVP2,2013-06-12 07:44:00,
2013-06-12 03:45:00,68.7,66.9,29.04,West,262,0.0,0.0,94,0.00,,,0.00,WUHU216DAVISVP2,2013-06-12 07:45:00,
2013-06-12 03:48:00,68.8,67.0,29.04,West,262,0.0,0.0,94,0.00,,,0.00,WUHU216DAVISVP2,2013-06-12 07:48:00,
2013-06-12 03:49:00,68.8,67.0,29.04,West,262,0.0,0.0,94,0.00,,,0.00,WUHU216DAVISVP2,2013-06-12 07:49:00,
2013-06-12 03:50:00,68.8,66.7,29.05,West,262,0.0,0.0,93,0.00,,,0.00,WUHU216DAVISVP2,2013-06-12 07:50:00,
2013-06-12 03:52:00,68.9,66.8,29.05,West,262,0.0,0.0,93,0.00,,,0.00,WUHU216DAVISVP2,2013-06-12 07:52:00,
2013-06-12 03:54:00,68.9,66.8,29.05,West,262,0.0,0.0,93,0.00,,,0.00,WUHU216DAVISVP2,2013-06-12 07:54:00,
2013-06-12 03:55:00,68.9,66.8,29.04,West,261,0.0,0.0,93,0.00,,,0.00,WUHU216DAVISVP2,2013-06-12 07:55:00,
2013-06-12 03:58:00,68.9,66.8,29.04,West,262,0.0,0.0,93,0.00,,,0.00,WUHU216DAVISVP2,2013-06-12 07:58:00,
2013-06-12 03:59:00,68.9,66.8,29.04,West,262,0.0,0.0,93,0.00,,,0.00,WUHU216DAVISVP2,2013-06-12 07:59:00,
2013-06-12 04:00:00,69.0,66.9,29.04,West,262,0.0,0.0,93,0.00,,,0.00,WUHU216DAVISVP2,2013-06-12 08:00:00,
2013-06-12 04:03:00,69.0,66.9,29.04,West,262,0.0,0.0,93,0.00,,,0.00,WUHU216DAVISVP2,2013-06-12 08:03:00,
2013-06-12 04:04:00,69.0,66.9,29.04,West,262,0.0,0.0,93,0.00,,,0.00,WUHU216DAVISVP2,2013-06-12 08:04:00,
2013-06-12 04:05:00,69.0,66.9,29.04,West,262,0.0,0.0,93,0.00,,,0.00,WUHU216DAVISVP2,2013-06-12 08:05:00,
2013-06-12 04:06:00,69.0,66.9,29.04,West,262,0.0,0.0,93,0.00,,,0.00,WUHU216DAVISVP2,2013-06-12 08:06:00,
2013-06-12 04:08:00,69.0,66.9,29.05,West,262,0.0,0.0,93,0.00,,,0.00,WUHU216DAVISVP2,2013-06-12 08:08:00,
2013-06-12 04:09:00,69.1,67.0,29.05,West,262,0.0,0.0,93,0.00,,,0.00,WUHU216DAVISVP2,2013-06-12 08:09:00,
2013-06-12 04:10:00,69.1,67.0,29.04,West,262,0.0,0.0,93,0.00,,,0.00,WUHU216DAVISVP2,2013-06-12 08:10:00,
2013-06-12 04:11:00,69.1,67.0,29.05,West,262,0.0,0.0,93,0.00,,,0.00,WUHU216DAVISVP2,2013-06-12 08:11:00,
2013-06-12 04:13:00,69.1,67.0,29.05,West,262,0.0,0.0,93,0.00,,,0.00,WUHU216DAVISVP2,2013-06-12 08:13:00,
2013-06-12 04:14:00,69.1,67.0,29.05,West,262,0.0,0.0,93,0.00,,,0.00,WUHU216DAVISVP2,2013-06-12 08:14:00,
2013-06-12 04:15:00,69.1,67.0,29.05,West,262,0.0,0.0,93,0.00,,,0.00,WUHU216DAVISVP2,2013-06-12 08:15:00,
2013-06-12 04:16:00,69.1,67.0,29.05,West,262,0.0,0.0,93,0.00,,,0.00,WUHU216DAVISVP2,2013-06-12 08:16:00,
2013-06-12 04:18:00,69.2,67.1,29.04,West,262,0.0,0.0,93,0.00,,,0.00,WUHU216DAVISVP2,2013-06-12 08:18:00,
2013-06-12 04:19:00,69.2,67.1,29.04,West,262,0.0,0.0,93,0.00,,,0.00,WUHU216DAVISVP2,2013-06-12 08:19:00,
2013-06-12 04:21:00,69.2,67.1,29.05,West,262,0.0,0.0,93,0.00,,,0.00,WUHU216DAVISVP2,2013-06-12 08:21:00,
2013-06-12 04:24:00,69.3,67.2,29.04,West,262,0.0,0.0,93,0.00,,,0.00,WUHU216DAVISVP2,2013-06-12 08:24:00,
2013-06-12 04:26:00,69.3,67.2,29.04,West,262,0.0,0.0,93,0.00,,,0.00,WUHU216DAVISVP2,2013-06-12 08:26:00,
2013-06-12 04:29:00,69.4,67.3,29.05,West,262,0.0,0.0,93,0.00,,,0.00,WUHU216DAVISVP2,2013-06-12 08:29:00,
2013-06-12 04:30:00,69.4,67.3,29.05,West,262,0.0,0.0,93,0.00,,,0.00,WUHU216DAVISVP2,2013-06-12 08:30:00,
2013-06-12 04:31:00,69.4,67.3,29.05,West,262,0.0,0.0,93,0.00,,,0.00,WUHU216DAVISVP2,2013-06-12 08:31:00,
2013-06-12 04:32:00,69.5,67.4,29.05,West,262,0.0,0.0,93,0.00,,,0.00,WUHU216DAVISVP2,2013-06-12 08:32:00,
2013-06-12 04:34:00,69.5,67.4,29.05,West,262,0.0,0.0,93,0.00,,,0.00,WUHU216DAVISVP2,2013-06-12 08:34:00,
2013-06-12 04:35:00,69.6,67.5,29.05,West,262,0.0,0.0,93,0.00,,,0.00,WUHU216DAVISVP2,2013-06-12 08:35:00,
2013-06-12 04:36:00,69.6,67.5,29.05,West,262,0.0,0.0,93,0.00,,,0.00,WUHU216DAVISVP2,2013-06-12 08:36:00,
2013-06-12 04:37:00,69.6,67.5,29.05,West,262,0.0,0.0,93,0.00,,,0.00,WUHU216DAVISVP2,2013-06-12 08:37:00,
2013-06-12 04:39:00,69.7,67.6,29.04,West,262,0.0,0.0,93,0.00,,,0.00,WUHU216DAVISVP2,2013-06-12 08:39:00,
2013-06-12 04:40:00,69.7,67.6,29.04,West,262,0.0,0.0,93,0.00,,,0.00,WUHU216DAVISVP2,2013-06-12 08:40:00,
2013-06-12 04:42:00,69.7,67.2,29.04,West,262,0.0,0.0,92,0.00,,,0.00,WUHU216DAVISVP2,2013-06-12 08:42:00,
2013-06-12 04:44:00,69.7,67.2,29.05,West,262,0.0,0.0,92,0.00,,,0.00,WUHU216DAVISVP2,2013-06-12 08:44:00,
2013-06-12 04:45:00,69.7,67.2,29.05,West,262,0.0,0.0,92,0.00,,,0.00,WUHU216DAVISVP2,2013-06-12 08:45:00,
2013-06-12 04:47:00,69.7,67.2,29.05,West,262,0.0,0.0,92,0.00,,,0.00,WUHU216DAVISVP2,2013-06-12 08:47:00,
2013-06-12 04:49:00,69.6,67.1,29.05,West,262,0.0,0.0,92,0.00,,,0.00,WUHU216DAVISVP2,2013-06-12 08:49:00,
2013-06-12 04:50:00,69.6,67.1,29.05,West,262,0.0,0.0,92,0.00,,,0.00,WUHU216DAVISVP2,2013-06-12 08:50:00,
2013-06-12 04:51:00,69.6,67.1,29.05,West,262,0.0,0.0,92,0.00,,,0.00,WUHU216DAVISVP2,2013-06-12 08:51:00,
2013-06-12 04:52:00,69.5,67.0,29.05,West,262,0.0,0.0,92,0.00,,,0.00,WUHU216DAVISVP2,2013-06-12 08:52:00,
2013-06-12 04:53:00,69.6,67.1,29.05,West,262,0.0,0.0,92,0.00,,,0.00,WUHU216DAVISVP2,2013-06-12 08:53:00,
2013-06-12 04:55:00,69.5,67.0,29.05,West,262,0.0,0.0,92,0.00,,,0.00,WUHU216DAVISVP2,2013-06-12 08:55:00,
2013-06-12 04:56:00,69.5,67.0,29.05,West,262,0.0,0.0,92,0.00,,,0.00,WUHU216DAVISVP2,2013-06-12 08:56:00,
2013-06-12 04:58:00,69.5,67.0,29.05,West,261,0.0,0.0,92,0.00,,,0.00,WUHU216DAVISVP2,2013-06-12 08:58:00,
2013-06-12 05:00:00,69.5,67.0,29.05,West,262,0.0,0.0,92,0.00,,,0.00,WUHU216DAVISVP2,2013-06-12 09:00:00,
2013-06-12 05:01:00,69.4,66.9,29.05,West,262,0.0,0.0,92,0.00,,,0.00,WUHU216DAVISVP2,2013-06-12 09:01:00,
2013-06-12 05:03:00,69.4,66.9,29.05,West,262,0.0,0.0,92,0.00,,,0.00,WUHU216DAVISVP2,2013-06-12 09:03:00,
2013-06-12 05:06:00,69.4,66.9,29.06,West,262,0.0,0.0,92,0.00,,,0.00,WUHU216DAVISVP2,2013-06-12 09:06:00,
2013-06-12 05:08:00,69.4,66.9,29.06,West,262,0.0,0.0,92,0.00,,,0.00,WUHU216DAVISVP2,2013-06-12 09:08:00,
2013-06-12 05:11:00,69.4,66.9,29.05,West,262,0.0,0.0,92,0.00,,,0.00,WUHU216DAVISVP2,2013-06-12 09:11:00,
2013-06-12 05:13:00,69.3,66.8,29.06,West,262,0.0,0.0,92,0.00,,,0.00,WUHU216DAVISVP2,2013-06-12 09:13:00,
2013-06-12 05:16:00,69.3,66.8,29.05,West,262,0.0,0.0,92,0.00,,,0.00,WUHU216DAVISVP2,2013-06-12 09:16:00,
2013-06-12 05:18:00,69.2,66.7,29.06,West,261,0.0,0.0,92,0.00,,,0.00,WUHU216DAVISVP2,2013-06-12 09:18:00,
2013-06-12 05:21:00,69.2,66.7,29.06,West,262,0.0,0.0,92,0.00,,,0.00,WUHU216DAVISVP2,2013-06-12 09:21:00,
2013-06-12 05:23:00,69.1,66.6,29.06,West,262,0.0,0.0,92,0.00,,,0.00,WUHU216DAVISVP2,2013-06-12 09:23:00,
2013-06-12 05:24:00,69.1,66.6,29.06,West,262,0.0,0.0,92,0.00,,,0.00,WUHU216DAVISVP2,2013-06-12 09:24:00,
2013-06-12 05:26:00,69.0,66.6,29.06,West,262,0.0,0.0,92,0.00,,,0.00,WUHU216DAVISVP2,2013-06-12 09:26:00,
2013-06-12 05:28:00,69.0,66.6,29.06,West,262,0.0,0.0,92,0.00,,,0.00,WUHU216DAVISVP2,2013-06-12 09:28:00,
2013-06-12 05:29:00,69.0,66.6,29.06,West,262,0.0,0.0,92,0.00,,,0.00,WUHU216DAVISVP2,2013-06-12 09:29:00,
2013-06-12 05:31:00,69.0,66.6,29.06,West,262,0.0,0.0,92,0.00,,,0.00,WUHU216DAVISVP2,2013-06-12 09:31:00,
2013-06-12 05:32:00,69.0,66.6,29.06,West,262,0.0,0.0,92,0.00,,,0.00,WUHU216DAVISVP2,2013-06-12 09:32:00,
2013-06-12 05:33:00,68.9,66.5,29.06,West,262,0.0,0.0,92,0.00,,,0.00,WUHU216DAVISVP2,2013-06-12 09:33:00,
2013-06-12 05:34:00,68.8,66.4,29.06,West,262,0.0,0.0,92,0.00,,,0.00,WUHU216DAVISVP2,2013-06-12 09:34:00,
2013-06-12 05:37:00,68.8,66.7,29.06,West,262,0.0,0.0,93,0.00,,,0.00,WUHU216DAVISVP2,2013-06-12 09:37:00,
2013-06-12 05:38:00,68.7,66.6,29.06,West,262,0.0,0.0,93,0.00,,,0.00,WUHU216DAVISVP2,2013-06-12 09:38:00,
2013-06-12 05:39:00,68.7,66.6,29.06,West,262,0.0,0.0,93,0.00,,,0.00,WUHU216DAVISVP2,2013-06-12 09:39:00,
2013-06-12 05:42:00,68.6,66.5,29.06,West,262,0.0,0.0,93,0.00,,,0.00,WUHU216DAVISVP2,2013-06-12 09:42:00,
2013-06-12 05:44:00,68.6,66.5,29.06,West,262,0.0,0.0,93,0.00,,,0.00,WUHU216DAVISVP2,2013-06-12 09:44:00,
2013-06-12 05:45:00,68.5,66.4,29.06,West,262,0.0,1.0,93,0.00,,,0.00,WUHU216DAVISVP2,2013-06-12 09:45:00,
2013-06-12 05:47:00,68.5,66.4,29.06,West,262,0.0,1.0,93,0.00,,,0.00,WUHU216DAVISVP2,2013-06-12 09:47:00,
2013-06-12 05:48:00,68.4,66.3,29.06,West,262,0.0,1.0,93,0.00,,,0.00,WUHU216DAVISVP2,2013-06-12 09:48:00,
2013-06-12 05:49:00,68.4,66.3,29.06,West,262,0.0,1.0,93,0.00,,,0.00,WUHU216DAVISVP2,2013-06-12 09:49:00,
2013-06-12 05:50:00,68.4,66.3,29.06,West,262,0.0,1.0,93,0.00,,,0.00,WUHU216DAVISVP2,2013-06-12 09:50:00,
2013-06-12 05:52:00,68.3,66.2,29.06,West,262,0.0,1.0,93,0.00,,,0.00,WUHU216DAVISVP2,2013-06-12 09:52:00,
2013-06-12 05:53:00,68.3,66.2,29.06,West,262,0.0,1.0,93,0.00,,,0.00,WUHU216DAVISVP2,2013-06-12 09:53:00,
2013-06-12 05:54:00,68.3,66.2,29.06,West,262,0.0,1.0,93,0.00,,,0.00,WUHU216DAVISVP2,2013-06-12 09:54:00,
2013-06-12 05:55:00,68.3,66.2,29.06,West,262,0.0,1.0,93,0.00,,,0.00,WUHU216DAVISVP2,2013-06-12 09:55:00,
2013-06-12 05:57:00,68.4,66.3,29.06,West,262,0.0,2.0,93,0.00,,,0.00,WUHU216DAVISVP2,2013-06-12 09:57:00,
2013-06-12 05:58:00,68.4,66.3,29.06,West,262,0.0,2.0,93,0.00,,,0.00,WUHU216DAVISVP2,2013-06-12 09:58:00,
2013-06-12 06:00:00,68.4,66.3,29.06,West,262,0.0,2.0,93,0.00,,,0.00,WUHU216DAVISVP2,2013-06-12 10:00:00,
2013-06-12 06:03:00,68.4,66.3,29.06,West,262,0.0,2.0,93,0.00,,,0.00,WUHU216DAVISVP2,2013-06-12 10:03:00,
2013-06-12 06:05:00,68.4,66.3,29.06,West,262,0.0,2.0,93,0.00,,,0.00,WUHU216DAVISVP2,2013-06-12 10:05:00,
2013-06-12 06:06:00,68.4,66.3,29.05,West,262,0.0,2.0,93,0.00,,,0.00,WUHU216DAVISVP2,2013-06-12 10:06:00,
2013-06-12 06:08:00,68.3,66.2,29.05,West,262,0.0,2.0,93,0.00,,,0.00,WUHU216DAVISVP2,2013-06-12 10:08:00,
2013-06-12 06:10:00,68.2,66.1,29.05,West,262,0.0,2.0,93,0.00,,,0.00,WUHU216DAVISVP2,2013-06-12 10:10:00,
2013-06-12 06:11:00,68.1,66.0,29.05,West,262,0.0,2.0,93,0.00,,,0.00,WUHU216DAVISVP2,2013-06-12 10:11:00,
2013-06-12 06:13:00,68.0,65.9,29.05,West,262,0.0,2.0,93,0.00,,,0.00,WUHU216DAVISVP2,2013-06-12 10:13:00,
2013-06-12 06:14:00,68.0,65.9,29.05,West,262,0.0,2.0,93,0.00,,,0.00,WUHU216DAVISVP2,2013-06-12 10:14:00,
2013-06-12 06:15:00,68.0,65.9,29.05,West,262,0.0,1.0,93,0.00,,,0.00,WUHU216DAVISVP2,2013-06-12 10:15:00,
2013-06-12 06:16:00,67.9,65.8,29.05,West,262,0.0,1.0,93,0.00,,,0.00,WUHU216DAVISVP2,2013-06-12 10:16:00,
2013-06-12 06:18:00,67.9,65.8,29.05,West,262,0.0,0.0,93,0.00,,,0.00,WUHU216DAVISVP2,2013-06-12 10:18:00,
2013-06-12 06:20:00,67.9,65.8,29.05,West,262,0.0,0.0,93,0.00,,,0.00,WUHU216DAVISVP2,2013-06-12 10:20:00,
2013-06-12 06:21:00,67.8,65.7,29.06,West,262,0.0,0.0,93,0.00,,,0.00,WUHU216DAVISVP2,2013-06-12 10:21:00,
2013-06-12 06:23:00,67.8,65.7,29.05,West,262,0.0,0.0,93,0.00,,,0.00,WUHU216DAVISVP2,2013-06-12 10:23:00,
2013-06-12 06:25:00,67.8,65.7,29.05,West,262,0.0,0.0,93,0.00,,,0.00,WUHU216DAVISVP2,2013-06-12 10:25:00,
2013-06-12 06:26:00,67.7,65.6,29.05,West,262,0.0,0.0,93,0.00,,,0.00,WUHU216DAVISVP2,2013-06-12 10:26:00,
2013-06-12 06:29:00,67.7,65.6,29.05,West,262,0.0,0.0,93,0.00,,,0.00,WUHU216DAVISVP2,2013-06-12 10:29:00,
2013-06-12 06:30:00,67.7,65.9,29.05,West,262,0.0,0.0,94,0.00,,,0.00,WUHU216DAVISVP2,2013-06-12 10:30:00,
2013-06-12 06:31:00,67.7,65.9,29.05,West,262,0.0,0.0,94,0.00,,,0.00,WUHU216DAVISVP2,2013-06-12 10:31:00,
2013-06-12 06:34:00,67.7,65.9,29.06,West,262,0.0,0.0,94,0.00,,,0.00,WUHU216DAVISVP2,2013-06-12 10:34:00,
2013-06-12 06:35:00,67.7,65.9,29.05,West,262,0.0,0.0,94,0.00,,,0.00,WUHU216DAVISVP2,2013-06-12 10:35:00,
2013-06-12 06:36:00,67.7,65.9,29.06,West,262,0.0,1.0,94,0.00,,,0.00,WUHU216DAVISVP2,2013-06-12 10:36:00,
2013-06-12 06:39:00,67.7,65.9,29.06,West,262,1.0,2.0,94,0.00,,,0.00,WUHU216DAVISVP2,2013-06-12 10:39:00,
2013-06-12 06:40:00,67.7,65.9,29.06,West,262,3.0,5.0,94,0.00,,,0.00,WUHU216DAVISVP2,2013-06-12 10:40:00,
2013-06-12 06:41:00,67.7,65.9,29.06,West,262,5.0,5.0,94,0.00,,,0.00,WUHU216DAVISVP2,2013-06-12 10:41:00,
2013-06-12 06:44:00,67.8,66.0,29.07,West,262,6.0,9.0,94,0.00,,,0.00,WUHU216DAVISVP2,2013-06-12 10:44:00,
2013-06-12 06:45:00,67.9,66.1,29.07,West,262,6.0,9.0,94,0.00,,,0.00,WUHU216DAVISVP2,2013-06-12 10:45:00,
2013-06-12 06:46:00,67.9,66.1,29.07,West,261,5.0,9.0,94,0.00,,,0.00,WUHU216DAVISVP2,2013-06-12 10:46:00,
2013-06-12 06:47:00,67.9,66.1,29.07,West,262,5.0,9.0,94,0.00,,,0.00,WUHU216DAVISVP2,2013-06-12 10:47:00,
2013-06-12 06:49:00,68.0,66.2,29.07,West,262,5.0,9.0,94,0.00,,,0.00,WUHU216DAVISVP2,2013-06-12 10:49:00,
2013-06-12 06:50:00,68.0,66.2,29.07,West,262,0.0,9.0,94,0.00,,,0.00,WUHU216DAVISVP2,2013-06-12 10:50:00,
2013-06-12 06:51:00,68.0,66.2,29.07,West,262,5.0,9.0,94,0.00,,,0.00,WUHU216DAVISVP2,2013-06-12 10:51:00,
2013-06-12 06:52:00,68.1,66.6,29.07,West,262,1.0,9.0,95,0.00,,,0.00,WUHU216DAVISVP2,2013-06-12 10:52:00,
2013-06-12 06:55:00,68.2,66.7,29.07,West,262,2.0,9.0,95,0.00,,,0.00,WUHU216DAVISVP2,2013-06-12 10:55:00,
2013-06-12 06:56:00,68.2,66.7,29.07,West,262,4.0,9.0,95,0.00,,,0.00,WUHU216DAVISVP2,2013-06-12 10:56:00,
2013-06-12 06:58:00,68.3,66.8,29.07,West,261,4.0,9.0,95,0.00,,,0.00,WUHU216DAVISVP2,2013-06-12 10:58:00,
2013-06-12 07:00:00,68.4,66.9,29.07,West,261,5.0,9.0,95,0.00,,,0.00,WUHU216DAVISVP2,2013-06-12 11:00:00,
2013-06-12 07:01:00,68.4,66.9,29.07,West,261,0.0,9.0,95,0.00,,,0.00,WUHU216DAVISVP2,2013-06-12 11:01:00,
2013-06-12 07:03:00,68.5,66.7,29.07,West,261,0.0,7.0,94,0.00,,,0.00,WUHU216DAVISVP2,2013-06-12 11:03:00,
2013-06-12 07:05:00,68.6,66.8,29.07,West,261,0.0,7.0,94,0.00,,,0.00,WUHU216DAVISVP2,2013-06-12 11:05:00,
2013-06-12 07:06:00,68.6,66.8,29.07,West,261,0.0,7.0,94,0.00,,,0.00,WUHU216DAVISVP2,2013-06-12 11:06:00,
2013-06-12 07:08:00,68.6,66.8,29.07,West,261,2.0,7.0,94,0.00,,,0.00,WUHU216DAVISVP2,2013-06-12 11:08:00,
2013-06-12 07:10:00,68.7,66.9,29.07,West,261,1.0,7.0,94,0.00,,,0.00,WUHU216DAVISVP2,2013-06-12 11:10:00,
2013-06-12 07:11:00,68.7,66.9,29.06,West,260,5.0,7.0,94,0.00,,,0.00,WUHU216DAVISVP2,2013-06-12 11:11:00,
2013-06-12 07:13:00,68.8,67.0,29.06,South,182,0.0,7.0,94,0.00,,,0.00,WUHU216DAVISVP2,2013-06-12 11:13:00,
2013-06-12 07:15:00,68.8,67.0,29.06,South,182,0.0,7.0,94,0.00,,,0.00,WUHU216DAVISVP2,2013-06-12 11:15:00,
2013-06-12 07:16:00,68.8,67.0,29.06,South,183,3.0,7.0,94,0.00,,,0.00,WUHU216DAVISVP2,2013-06-12 11:16:00,
2013-06-12 07:17:00,68.8,67.0,29.06,South,183,1.0,7.0,94,0.00,,,0.00,WUHU216DAVISVP2,2013-06-12 11:17:00,
2013-06-12 07:18:00,68.8,67.0,29.06,South,183,1.0,7.0,94,0.00,,,0.00,WUHU216DAVISVP2,2013-06-12 11:18:00,
2013-06-12 07:21:00,68.8,67.0,29.06,South,183,3.0,7.0,94,0.00,,,0.00,WUHU216DAVISVP2,2013-06-12 11:21:00,
2013-06-12 07:22:00,68.8,67.0,29.06,South,183,4.0,7.0,94,0.00,,,0.00,WUHU216DAVISVP2,2013-06-12 11:22:00,
2013-06-12 07:23:00,68.8,67.0,29.06,South,183,0.0,7.0,94,0.00,,,0.00,WUHU216DAVISVP2,2013-06-12 11:23:00,
2013-06-12 07:26:00,68.9,67.1,29.06,WSW,239,5.0,7.0,94,0.00,,,0.00,WUHU216DAVISVP2,2013-06-12 11:26:00,
2013-06-12 07:27:00,68.9,67.1,29.06,SW,235,0.0,7.0,94,0.00,,,0.00,WUHU216DAVISVP2,2013-06-12 11:27:00,
2013-06-12 07:28:00,69.0,67.2,29.06,SW,215,0.0,7.0,94,0.00,,,0.00,WUHU216DAVISVP2,2013-06-12 11:28:00,
2013-06-12 07:29:00,69.0,67.2,29.06,SW,215,1.0,7.0,94,0.00,,,0.00,WUHU216DAVISVP2,2013-06-12 11:29:00,
2013-06-12 07:31:00,69.1,67.3,29.06,SW,214,3.0,5.0,94,0.00,,,0.00,WUHU216DAVISVP2,2013-06-12 11:31:00,
2013-06-12 07:32:00,69.1,67.3,29.06,SW,214,0.0,5.0,94,0.00,,,0.00,WUHU216DAVISVP2,2013-06-12 11:32:00,
2013-06-12 07:33:00,69.2,67.4,29.05,SW,215,0.0,5.0,94,0.00,,,0.00,WUHU216DAVISVP2,2013-06-12 11:33:00,
2013-06-12 07:34:00,69.2,67.4,29.05,SW,214,2.0,5.0,94,0.00,,,0.00,WUHU216DAVISVP2,2013-06-12 11:34:00,
2013-06-12 07:36:00,69.3,67.5,29.05,SW,215,1.0,5.0,94,0.00,,,0.00,WUHU216DAVISVP2,2013-06-12 11:36:00,
2013-06-12 07:37:00,69.4,67.6,29.05,SW,215,4.0,5.0,94,0.00,,,0.00,WUHU216DAVISVP2,2013-06-12 11:37:00,
2013-06-12 07:38:00,69.4,67.6,29.05,SW,215,1.0,5.0,94,0.00,,,0.00,WUHU216DAVISVP2,2013-06-12 11:38:00,
2013-06-12 07:39:00,69.5,67.7,29.05,SSW,202,4.0,5.0,94,0.00,,,0.00,WUHU216DAVISVP2,2013-06-12 11:39:00,
2013-06-12 07:41:00,69.6,67.8,29.05,South,173,0.0,5.0,94,0.00,,,0.00,WUHU216DAVISVP2,2013-06-12 11:41:00,
2013-06-12 07:42:00,69.7,67.9,29.05,South,191,3.0,6.0,94,0.00,,,0.00,WUHU216DAVISVP2,2013-06-12 11:42:00,
2013-06-12 07:43:00,69.7,67.9,29.05,South,191,4.0,6.0,94,0.00,,,0.00,WUHU216DAVISVP2,2013-06-12 11:43:00,
2013-06-12 07:45:00,69.8,68.0,29.05,South,187,1.0,6.0,94,0.00,,,0.00,WUHU216DAVISVP2,2013-06-12 11:45:00,
2013-06-12 07:47:00,69.9,67.8,29.05,SSW,212,0.0,6.0,93,0.00,,,0.00,WUHU216DAVISVP2,2013-06-12 11:47:00,
2013-06-12 07:48:00,69.9,67.8,29.05,SW,214,0.0,6.0,93,0.00,,,0.00,WUHU216DAVISVP2,2013-06-12 11:48:00,
2013-06-12 07:50:00,70.0,67.9,29.05,SW,235,5.0,6.0,93,0.00,,,0.00,WUHU216DAVISVP2,2013-06-12 11:50:00,
2013-06-12 07:52:00,70.0,67.9,29.05,SW,235,0.0,6.0,93,0.00,,,0.00,WUHU216DAVISVP2,2013-06-12 11:52:00,
2013-06-12 07:53:00,70.0,67.9,29.05,SW,235,1.0,6.0,93,0.00,,,0.00,WUHU216DAVISVP2,2013-06-12 11:53:00,
2013-06-12 07:54:00,70.0,67.9,29.05,SW,235,0.0,6.0,93,0.00,,,0.00,WUHU216DAVISVP2,2013-06-12 11:54:00,
2013-06-12 07:55:00,70.1,68.0,29.05,SW,235,1.0,6.0,93,0.00,,,0.00,WUHU216DAVISVP2,2013-06-12 11:55:00,
2013-06-12 07:57:00,70.1,68.0,29.05,SW,215,4.0,6.0,93,0.00,,,0.00,WUHU216DAVISVP2,2013-06-12 11:57:00,
2013-06-12 07:58:00,70.1,68.0,29.05,SW,215,1.0,6.0,93,0.00,,,0.00,WUHU216DAVISVP2,2013-06-12 11:58:00,
2013-06-12 07:59:00,70.2,68.1,29.05,SW,215,1.0,6.0,93,0.00,,,0.00,WUHU216DAVISVP2,2013-06-12 11:59:00,
2013-06-12 08:00:00,70.2,68.1,29.05,SW,215,3.0,6.0,93,0.00,,,0.00,WUHU216DAVISVP2,2013-06-12 12:00:00,
2013-06-12 08:02:00,70.3,68.1,29.05,SW,215,1.0,6.0,93,0.00,,,0.00,WUHU216DAVISVP2,2013-06-12 12:02:00,
2013-06-12 08:03:00,70.4,68.2,29.05,SW,214,1.0,6.0,93,0.00,,,0.00,WUHU216DAVISVP2,2013-06-12 12:03:00,
2013-06-12 08:04:00,70.4,68.2,29.05,SW,214,0.0,6.0,93,0.00,,,0.00,WUHU216DAVISVP2,2013-06-12 12:04:00,
2013-06-12 08:05:00,70.6,68.4,29.05,SW,214,2.0,5.0,93,0.00,,,0.00,WUHU216DAVISVP2,2013-06-12 12:05:00,
2013-06-12 08:07:00,70.7,68.5,29.05,SW,214,1.0,5.0,93,0.00,,,0.00,WUHU216DAVISVP2,2013-06-12 12:07:00,
2013-06-12 08:08:00,70.8,68.6,29.05,SW,214,1.0,5.0,93,0.00,,,0.00,WUHU216DAVISVP2,2013-06-12 12:08:00,
2013-06-12 08:09:00,70.9,68.7,29.05,SW,214,0.0,5.0,93,0.00,,,0.00,WUHU216DAVISVP2,2013-06-12 12:09:00,
2013-06-12 08:10:00,71.0,68.8,29.05,SW,214,0.0,5.0,93,0.00,,,0.00,WUHU216DAVISVP2,2013-06-12 12:10:00,
2013-06-12 08:11:00,71.0,68.8,29.05,SW,214,0.0,5.0,93,0.00,,,0.00,WUHU216DAVISVP2,2013-06-12 12:11:00,
2013-06-12 08:12:00,71.2,69.0,29.05,SW,215,2.0,6.0,93,0.00,,,0.00,WUHU216DAVISVP2,2013-06-12 12:12:00,
2013-06-12 08:14:00,71.3,69.1,29.06,SW,215,1.0,6.0,93,0.00,,,0.00,WUHU216DAVISVP2,2013-06-12 12:14:00,
2013-06-12 08:15:00,71.4,69.2,29.06,SW,215,2.0,6.0,93,0.00,,,0.00,WUHU216DAVISVP2,2013-06-12 12:15:00,
2013-06-12 08:16:00,71.5,69.3,29.06,SW,215,4.0,6.0,93,0.00,,,0.00,WUHU216DAVISVP2,2013-06-12 12:16:00,
2013-06-12 08:17:00,71.6,69.4,29.06,WSW,250,7.0,7.0,93,0.00,,,0.00,WUHU216DAVISVP2,2013-06-12 12:17:00,
2013-06-12 08:19:00,71.7,69.2,29.06,WSW,250,4.0,7.0,92,0.00,,,0.00,WUHU216DAVISVP2,2013-06-12 12:19:00,
2013-06-12 08:20:00,71.9,69.4,29.06,WSW,250,4.0,7.0,92,0.00,,,0.00,WUHU216DAVISVP2,2013-06-12 12:20:00,
2013-06-12 08:21:00,71.9,69.4,29.06,WSW,250,8.0,8.0,92,0.00,,,0.00,WUHU216DAVISVP2,2013-06-12 12:21:00,
2013-06-12 08:22:00,72.1,69.6,29.06,WSW,250,4.0,8.0,92,0.00,,,0.00,WUHU216DAVISVP2,2013-06-12 12:22:00,
2013-06-12 08:24:00,72.3,69.8,29.06,WSW,250,6.0,8.0,92,0.00,,,0.00,WUHU216DAVISVP2,2013-06-12 12:24:00,
2013-06-12 08:25:00,72.4,69.6,29.06,WSW,250,4.0,8.0,91,0.00,,,0.00,WUHU216DAVISVP2,2013-06-12 12:25:00,
2013-06-12 08:26:00,72.4,69.6,29.06,WSW,250,5.0,8.0,91,0.00,,,0.00,WUHU216DAVISVP2,2013-06-12 12:26:00,
2013-06-12 08:28:00,72.6,69.8,29.06,WSW,249,7.0,8.0,91,0.00,,,0.00,WUHU216DAVISVP2,2013-06-12 12:28:00,
2013-06-12 08:29:00,72.7,69.9,29.06,WSW,249,6.0,8.0,91,0.00,,,0.00,WUHU216DAVISVP2,2013-06-12 12:29:00,
2013-06-12 08:30:00,72.9,70.1,29.07,WSW,249,4.0,8.0,91,0.00,,,0.00,WUHU216DAVISVP2,2013-06-12 12:30:00,
2013-06-12 08:31:00,72.9,70.1,29.07,WSW,249,3.0,8.0,91,0.00,,,0.00,WUHU216DAVISVP2,2013-06-12 12:31:00,
2013-06-12 08:33:00,73.1,70.0,29.07,West,272,4.0,8.0,90,0.00,,,0.00,WUHU216DAVISVP2,2013-06-12 12:33:00,
2013-06-12 08:35:00,73.4,70.3,29.07,West,275,6.0,8.0,90,0.00,,,0.00,WUHU216DAVISVP2,2013-06-12 12:35:00,
2013-06-12 08:36:00,73.5,70.4,29.07,West,277,7.0,9.0,90,0.00,,,0.00,WUHU216DAVISVP2,2013-06-12 12:36:00,
2013-06-12 08:37:00,73.6,70.2,29.07,West,266,8.0,9.0,89,0.00,,,0.00,WUHU216DAVISVP2,2013-06-12 12:37:00,
2013-06-12 08:38:00,73.7,70.3,29.07,West,275,6.0,9.0,89,0.00,,,0.00,WUHU216DAVISVP2,2013-06-12 12:38:00,
2013-06-12 08:40:00,73.9,70.4,29.08,West,279,6.0,9.0,89,0.00,,,0.00,WUHU216DAVISVP2,2013-06-12 12:40:00,
2013-06-12 08:41:00,74.0,70.2,29.08,West,273,4.0,9.0,88,0.00,,,0.00,WUHU216DAVISVP2,2013-06-12 12:41:00,
2013-06-12 08:42:00,74.0,70.5,29.08,West,273,6.0,9.0,89,0.00,,,0.00,WUHU216DAVISVP2,2013-06-12 12:42:00,
2013-06-12 08:43:00,74.1,70.3,29.08,West,273,6.0,9.0,88,0.00,,,0.00,WUHU216DAVISVP2,2013-06-12 12:43:00,
2013-06-12 08:45:00,74.2,70.4,29.07,West,273,2.0,9.0,88,0.00,,,0.00,WUHU216DAVISVP2,2013-06-12 12:45:00,
2013-06-12 08:46:00,74.2,70.4,29.07,West,273,0.0,9.0,88,0.00,,,0.00,WUHU216DAVISVP2,2013-06-12 12:46:00,
2013-06-12 08:47:00,74.2,70.4,29.07,West,273,5.0,9.0,88,0.00,,,0.00,WUHU216DAVISVP2,2013-06-12 12:47:00,
2013-06-12 08:49:00,74.3,70.5,29.07,West,273,2.0,9.0,88,0.00,,,0.00,WUHU216DAVISVP2,2013-06-12 12:49:00,
2013-06-12 08:50:00,74.3,70.5,29.07,West,273,4.0,9.0,88,0.00,,,0.00,WUHU216DAVISVP2,2013-06-12 12:50:00,
2013-06-12 08:51:00,74.4,70.3,29.07,West,273,0.0,9.0,87,0.00,,,0.00,WUHU216DAVISVP2,2013-06-12 12:51:00,
2013-06-12 08:52:00,74.4,70.3,29.07,West,273,2.0,9.0,87,0.00,,,0.00,WUHU216DAVISVP2,2013-06-12 12:52:00,
2013-06-12 08:54:00,74.5,70.4,29.07,West,273,0.0,9.0,87,0.01,,,0.01,WUHU216DAVISVP2,2013-06-12 12:54:00,
2013-06-12 08:55:00,74.6,70.5,29.07,West,273,1.0,8.0,87,0.01,,,0.01,WUHU216DAVISVP2,2013-06-12 12:55:00,
2013-06-12 08:56:00,74.7,70.6,29.07,WNW,293,3.0,8.0,87,0.01,,,0.01,WUHU216DAVISVP2,2013-06-12 12:56:00,
2013-06-12 08:57:00,74.8,70.7,29.07,WNW,294,3.0,8.0,87,0.01,,,0.01,WUHU216DAVISVP2,2013-06-12 12:57:00,
2013-06-12 08:59:00,74.9,70.8,29.07,WNW,293,0.0,8.0,87,0.01,,,0.01,WUHU216DAVISVP2,2013-06-12 12:59:00,
2013-06-12 09:00:00,75.0,70.9,29.07,WNW,294,0.0,7.0,87,0.01,,,0.01,WUHU216DAVISVP2,2013-06-12 13:00:00,
2013-06-12 09:02:00,75.1,71.0,29.07,WNW,294,0.0,6.0,87,0.01,,,0.01,WUHU216DAVISVP2,2013-06-12 13:02:00,
2013-06-12 09:04:00,75.2,70.8,29.08,WNW,296,4.0,5.0,86,0.01,,,0.01,WUHU216DAVISVP2,2013-06-12 13:04:00,
2013-06-12 09:05:00,75.2,70.8,29.07,WNW,301,5.0,6.0,86,0.01,,,0.01,WUHU216DAVISVP2,2013-06-12 13:05:00,
2013-06-12 09:07:00,75.2,70.8,29.08,North,9,5.0,6.0,86,0.01,,,0.01,WUHU216DAVISVP2,2013-06-12 13:07:00,
2013-06-12 09:09:00,75.1,70.7,29.08,North,8,4.0,6.0,86,0.01,,,0.01,WUHU216DAVISVP2,2013-06-12 13:09:00,
2013-06-12 09:11:00,75.1,70.7,29.08,North,8,3.0,6.0,86,0.01,,,0.01,WUHU216DAVISVP2,2013-06-12 13:11:00,
2013-06-12 09:12:00,75.1,70.7,29.08,North,8,2.0,6.0,86,0.01,,,0.01,WUHU216DAVISVP2,2013-06-12 13:12:00,
2013-06-12 09:15:00,75.1,70.7,29.08,North,8,0.0,6.0,86,0.01,,,0.01,WUHU216DAVISVP2,2013-06-12 13:15:00,
2013-06-12 09:16:00,75.1,70.7,29.08,North,8,2.0,6.0,86,0.01,,,0.01,WUHU216DAVISVP2,2013-06-12 13:16:00,
2013-06-12 09:17:00,75.2,70.8,29.08,North,8,0.0,6.0,86,0.01,,,0.01,WUHU216DAVISVP2,2013-06-12 13:17:00,
2013-06-12 09:18:00,75.2,70.8,29.08,North,8,0.0,6.0,86,0.01,,,0.01,WUHU216DAVISVP2,2013-06-12 13:18:00,
2013-06-12 09:20:00,75.3,70.8,29.09,North,8,1.0,6.0,86,0.01,,,0.01,WUHU216DAVISVP2,2013-06-12 13:20:00,
2013-06-12 09:21:00,75.4,70.9,29.09,North,8,1.0,6.0,86,0.01,,,0.01,WUHU216DAVISVP2,2013-06-12 13:21:00,
2013-06-12 09:23:00,75.4,70.9,29.09,North,8,2.0,6.0,86,0.01,,,0.01,WUHU216DAVISVP2,2013-06-12 13:23:00,
2013-06-12 09:25:00,75.4,70.9,29.08,North,8,5.0,6.0,86,0.01,,,0.01,WUHU216DAVISVP2,2013-06-12 13:25:00,
2013-06-12 09:26:00,75.4,70.9,29.08,North,8,1.0,5.0,86,0.01,,,0.01,WUHU216DAVISVP2,2013-06-12 13:26:00,
2013-06-12 09:28:00,75.5,71.0,29.08,North,8,0.0,5.0,86,0.01,,,0.01,WUHU216DAVISVP2,2013-06-12 13:28:00,
2013-06-12 09:30:00,75.7,71.2,29.08,North,8,1.0,5.0,86,0.01,,,0.01,WUHU216DAVISVP2,2013-06-12 13:30:00,
2013-06-12 09:31:00,75.8,71.3,29.08,North,8,0.0,5.0,86,0.01,,,0.01,WUHU216DAVISVP2,2013-06-12 13:31:00,
2013-06-12 09:33:00,76.0,71.5,29.08,North,8,0.0,5.0,86,0.01,,,0.01,WUHU216DAVISVP2,2013-06-12 13:33:00,
2013-06-12 09:36:00,76.3,71.5,29.08,North,8,4.0,5.0,85,0.01,,,0.01,WUHU216DAVISVP2,2013-06-12 13:36:00,
2013-06-12 09:38:00,76.1,71.0,29.08,North,8,2.0,5.0,84,0.01,,,0.01,WUHU216DAVISVP2,2013-06-12 13:38:00,
2013-06-12 09:41:00,76.0,70.9,29.08,NNW,330,1.0,5.0,84,0.01,,,0.01,WUHU216DAVISVP2,2013-06-12 13:41:00,
2013-06-12 09:42:00,76.0,70.9,29.08,NNW,330,2.0,5.0,84,0.01,,,0.01,WUHU216DAVISVP2,2013-06-12 13:42:00,
2013-06-12 09:43:00,76.0,70.9,29.08,NNW,330,0.0,5.0,84,0.01,,,0.01,WUHU216DAVISVP2,2013-06-12 13:43:00,
2013-06-12 09:44:00,76.0,70.9,29.08,NNW,330,3.0,5.0,84,0.01,,,0.01,WUHU216DAVISVP2,2013-06-12 13:44:00,
2013-06-12 09:46:00,76.1,71.0,29.08,NNW,330,2.0,5.0,84,0.01,,,0.01,WUHU216DAVISVP2,2013-06-12 13:46:00,
2013-06-12 09:47:00,76.1,71.0,29.08,NNW,330,2.0,5.0,84,0.01,,,0.01,WUHU216DAVISVP2,2013-06-12 13:47:00,
2013-06-12 09:48:00,76.2,71.1,29.08,NNW,330,2.0,5.0,84,0.01,,,0.01,WUHU216DAVISVP2,2013-06-12 13:48:00,
2013-06-12 09:49:00,76.2,71.1,29.08,NNW,330,2.0,5.0,84,0.01,,,0.01,WUHU216DAVISVP2,2013-06-12 13:49:00,
2013-06-12 09:51:00,76.2,71.1,29.08,NNW,330,4.0,5.0,84,0.01,,,0.01,WUHU216DAVISVP2,2013-06-12 13:51:00,
2013-06-12 09:52:00,76.2,71.1,29.08,NNW,330,5.0,5.0,84,0.01,,,0.01,WUHU216DAVISVP2,2013-06-12 13:52:00,
2013-06-12 09:54:00,76.1,71.0,29.09,WNW,297,2.0,5.0,84,0.00,,,0.01,WUHU216DAVISVP2,2013-06-12 13:54:00,
2013-06-12 09:56:00,76.2,71.1,29.09,WNW,297,4.0,5.0,84,0.00,,,0.01,WUHU216DAVISVP2,2013-06-12 13:56:00,
2013-06-12 09:57:00,76.1,71.0,29.09,WNW,297,2.0,5.0,84,0.00,,,0.01,WUHU216DAVISVP2,2013-06-12 13:57:00,
2013-06-12 09:59:00,76.1,71.0,29.09,WNW,297,2.0,5.0,84,0.00,,,0.01,WUHU216DAVISVP2,2013-06-12 13:59:00,
2013-06-12 10:01:00,76.1,71.0,29.09,WNW,291,4.0,6.0,84,0.00,,,0.01,WUHU216DAVISVP2,2013-06-12 14:01:00,
2013-06-12 10:02:00,76.1,71.0,29.09,WNW,291,3.0,6.0,84,0.00,,,0.01,WUHU216DAVISVP2,2013-06-12 14:02:00,
2013-06-12 10:04:00,76.2,71.1,29.09,WNW,291,2.0,6.0,84,0.00,,,0.01,WUHU216DAVISVP2,2013-06-12 14:04:00,
2013-06-12 10:05:00,76.2,71.4,29.09,WNW,291,2.0,6.0,85,0.00,,,0.01,WUHU216DAVISVP2,2013-06-12 14:05:00,
2013-06-12 10:07:00,76.2,71.4,29.09,WNW,291,5.0,6.0,85,0.00,,,0.01,WUHU216DAVISVP2,2013-06-12 14:07:00,
2013-06-12 10:09:00,76.2,71.4,29.09,WNW,291,1.0,6.0,85,0.00,,,0.01,WUHU216DAVISVP2,2013-06-12 14:09:00,
2013-06-12 10:10:00,76.2,71.4,29.09,WNW,291,0.0,6.0,85,0.00,,,0.01,WUHU216DAVISVP2,2013-06-12 14:10:00,
2013-06-12 10:12:00,76.2,71.4,29.09,WNW,291,4.0,6.0,85,0.00,,,0.01,WUHU216DAVISVP2,2013-06-12 14:12:00,
2013-06-12 10:14:00,76.2,71.4,29.09,WNW,291,3.0,6.0,85,0.00,,,0.01,WUHU216DAVISVP2,2013-06-12 14:14:00,
2013-06-12 10:15:00,76.2,71.4,29.09,WNW,291,1.0,6.0,85,0.00,,,0.01,WUHU216DAVISVP2,2013-06-12 14:15:00,
2013-06-12 10:17:00,76.3,71.5,29.09,WNW,291,1.0,6.0,85,0.00,,,0.01,WUHU216DAVISVP2,2013-06-12 14:17:00,
2013-06-12 10:19:00,76.5,71.7,29.09,ENE,64,4.0,6.0,85,0.00,,,0.01,WUHU216DAVISVP2,2013-06-12 14:19:00,
2013-06-12 10:20:00,76.5,71.7,29.09,ENE,64,4.0,6.0,85,0.00,,,0.01,WUHU216DAVISVP2,2013-06-12 14:20:00,
2013-06-12 10:22:00,76.7,71.6,29.08,ENE,64,4.0,5.0,84,0.00,,,0.01,WUHU216DAVISVP2,2013-06-12 14:22:00,
2013-06-12 10:23:00,76.7,71.6,29.08,ENE,64,4.0,5.0,84,0.00,,,0.01,WUHU216DAVISVP2,2013-06-12 14:23:00,
2013-06-12 10:24:00,76.8,71.7,29.08,ENE,64,4.0,5.0,84,0.00,,,0.01,WUHU216DAVISVP2,2013-06-12 14:24:00,
2013-06-12 10:25:00,76.8,71.7,29.08,ENE,64,4.0,5.0,84,0.00,,,0.01,WUHU216DAVISVP2,2013-06-12 14:25:00,
2013-06-12 10:27:00,77.0,71.8,29.08,ENE,64,0.0,5.0,84,0.00,,,0.01,WUHU216DAVISVP2,2013-06-12 14:27:00,
2013-06-12 10:28:00,77.0,71.8,29.08,ENE,64,1.0,5.0,84,0.00,,,0.01,WUHU216DAVISVP2,2013-06-12 14:28:00,
2013-06-12 10:29:00,77.1,71.9,29.08,ENE,64,4.0,5.0,84,0.00,,,0.01,WUHU216DAVISVP2,2013-06-12 14:29:00,
2013-06-12 10:30:00,77.2,72.0,29.08,ENE,64,4.0,5.0,84,0.00,,,0.01,WUHU216DAVISVP2,2013-06-12 14:30:00,
2013-06-12 10:33:00,77.5,72.0,29.08,ENE,64,0.0,5.0,83,0.00,,,0.01,WUHU216DAVISVP2,2013-06-12 14:33:00,
2013-06-12 10:35:00,77.6,71.7,29.08,ENE,64,0.0,5.0,82,0.00,,,0.01,WUHU216DAVISVP2,2013-06-12 14:35:00,
2013-06-12 10:36:00,77.7,71.8,29.08,ENE,64,0.0,5.0,82,0.00,,,0.01,WUHU216DAVISVP2,2013-06-12 14:36:00,
2013-06-12 10:38:00,78.0,71.8,29.08,ENE,64,1.0,5.0,81,0.00,,,0.01,WUHU216DAVISVP2,2013-06-12 14:38:00,
2013-06-12 10:40:00,78.3,72.1,29.08,ENE,64,2.0,5.0,81,0.00,,,0.01,WUHU216DAVISVP2,2013-06-12 14:40:00,
2013-06-12 10:41:00,78.4,72.2,29.08,East,95,1.0,5.0,81,0.00,,,0.01,WUHU216DAVISVP2,2013-06-12 14:41:00,
2013-06-12 10:43:00,78.5,72.6,29.08,East,94,0.0,5.0,82,0.00,,,0.01,WUHU216DAVISVP2,2013-06-12 14:43:00,
2013-06-12 10:45:00,78.6,72.4,29.08,East,96,2.0,5.0,81,0.00,,,0.01,WUHU216DAVISVP2,2013-06-12 14:45:00,
2013-06-12 10:46:00,78.6,72.4,29.08,East,95,3.0,5.0,81,0.00,,,0.01,WUHU216DAVISVP2,2013-06-12 14:46:00,
2013-06-12 10:48:00,78.6,72.4,29.08,East,87,2.0,5.0,81,0.00,,,0.01,WUHU216DAVISVP2,2013-06-12 14:48:00,
2013-06-12 10:49:00,78.6,72.4,29.08,East,85,4.0,5.0,81,0.00,,,0.01,WUHU216DAVISVP2,2013-06-12 14:49:00,
2013-06-12 10:50:00,78.6,72.4,29.08,East,85,2.0,5.0,81,0.00,,,0.01,WUHU216DAVISVP2,2013-06-12 14:50:00,
2013-06-12 10:51:00,78.5,71.9,29.08,East,85,2.0,5.0,80,0.00,,,0.01,WUHU216DAVISVP2,2013-06-12 14:51:00,
2013-06-12 10:53:00,78.5,71.9,29.08,East,85,0.0,5.0,80,0.00,,,0.01,WUHU216DAVISVP2,2013-06-12 14:53:00,
2013-06-12 10:54:00,78.4,72.2,29.08,East,85,4.0,5.0,81,0.00,,,0.01,WUHU216DAVISVP2,2013-06-12 14:54:00,
2013-06-12 10:55:00,78.4,72.2,29.08,ESE,116,4.0,5.0,81,0.00,,,0.01,WUHU216DAVISVP2,2013-06-12 14:55:00,
2013-06-12 10:56:00,78.4,72.2,29.08,ESE,116,1.0,5.0,81,0.00,,,0.01,WUHU216DAVISVP2,2013-06-12 14:56:00,
2013-06-12 10:58:00,78.4,72.5,29.08,ESE,116,2.0,5.0,82,0.00,,,0.01,WUHU216DAVISVP2,2013-06-12 14:58:00,
2013-06-12 10:59:00,78.4,72.5,29.08,ESE,116,1.0,5.0,82,0.00,,,0.01,WUHU216DAVISVP2,2013-06-12 14:59:00,
2013-06-12 11:00:00,78.4,72.5,29.08,ESE,116,0.0,5.0,82,0.00,,,0.01,WUHU216DAVISVP2,2013-06-12 15:00:00,
2013-06-12 11:01:00,78.4,72.5,29.08,ESE,116,1.0,5.0,82,0.00,,,0.01,WUHU216DAVISVP2,2013-06-12 15:01:00,
2013-06-12 11:02:00,78.4,72.5,29.08,ESE,112,3.0,5.0,82,0.00,,,0.01,WUHU216DAVISVP2,2013-06-12 15:02:00,
2013-06-12 11:03:00,78.4,72.5,29.08,East,96,1.0,5.0,82,0.00,,,0.01,WUHU216DAVISVP2,2013-06-12 15:03:00,
2013-06-12 11:04:00,78.5,72.6,29.08,East,94,4.0,5.0,82,0.00,,,0.01,WUHU216DAVISVP2,2013-06-12 15:04:00,
2013-06-12 11:06:00,78.5,72.3,29.08,NE,53,2.0,5.0,81,0.00,,,0.01,WUHU216DAVISVP2,2013-06-12 15:06:00,
2013-06-12 11:07:00,78.6,72.7,29.08,NE,54,2.0,5.0,82,0.00,,,0.01,WUHU216DAVISVP2,2013-06-12 15:07:00,
2013-06-12 11:08:00,78.6,72.7,29.08,NE,56,1.0,5.0,82,0.00,,,0.01,WUHU216DAVISVP2,2013-06-12 15:08:00,
2013-06-12 11:09:00,78.6,72.7,29.08,NE,56,1.0,5.0,82,0.00,,,0.01,WUHU216DAVISVP2,2013-06-12 15:09:00,
2013-06-12 11:11:00,78.6,72.4,29.09,NE,56,1.0,5.0,81,0.00,,,0.01,WUHU216DAVISVP2,2013-06-12 15:11:00,
2013-06-12 11:12:00,78.5,72.3,29.08,NE,56,0.0,5.0,81,0.00,,,0.01,WUHU216DAVISVP2,2013-06-12 15:12:00,
2013-06-12 11:13:00,78.5,72.3,29.08,NE,56,1.0,5.0,81,0.00,,,0.01,WUHU216DAVISVP2,2013-06-12 15:13:00,
2013-06-12 11:14:00,78.5,72.3,29.08,NE,56,1.0,5.0,81,0.00,,,0.01,WUHU216DAVISVP2,2013-06-12 15:14:00,
2013-06-12 11:16:00,78.5,72.3,29.08,NE,56,1.0,5.0,81,0.00,,,0.01,WUHU216DAVISVP2,2013-06-12 15:16:00,
2013-06-12 11:17:00,78.5,72.3,29.08,ENE,59,1.0,5.0,81,0.00,,,0.01,WUHU216DAVISVP2,2013-06-12 15:17:00,
2013-06-12 11:18:00,78.4,72.2,29.08,ENE,58,2.0,5.0,81,0.00,,,0.01,WUHU216DAVISVP2,2013-06-12 15:18:00,
2013-06-12 11:20:00,78.4,72.2,29.08,ENE,60,0.0,5.0,81,0.00,,,0.01,WUHU216DAVISVP2,2013-06-12 15:20:00,
2013-06-12 11:21:00,78.4,72.2,29.08,ENE,60,0.0,5.0,81,0.00,,,0.01,WUHU216DAVISVP2,2013-06-12 15:21:00,
2013-06-12 11:22:00,78.4,72.5,29.08,ENE,60,1.0,5.0,82,0.00,,,0.01,WUHU216DAVISVP2,2013-06-12 15:22:00,
2013-06-12 11:24:00,78.4,72.2,29.08,ENE,60,0.0,5.0,81,0.00,,,0.01,WUHU216DAVISVP2,2013-06-12 15:24:00,
2013-06-12 11:25:00,78.4,72.2,29.08,ENE,60,1.0,5.0,81,0.00,,,0.01,WUHU216DAVISVP2,2013-06-12 15:25:00,
2013-06-12 11:26:00,78.4,72.2,29.08,ENE,60,1.0,5.0,81,0.00,,,0.01,WUHU216DAVISVP2,2013-06-12 15:26:00,
2013-06-12 11:28:00,78.3,72.1,29.08,SSW,200,1.0,6.0,81,0.00,,,0.01,WUHU216DAVISVP2,2013-06-12 15:28:00,
2013-06-12 11:29:00,78.3,72.4,29.08,SSW,199,0.0,6.0,82,0.00,,,0.01,WUHU216DAVISVP2,2013-06-12 15:29:00,
2013-06-12 11:30:00,78.2,72.3,29.08,South,181,5.0,6.0,82,0.00,,,0.01,WUHU216DAVISVP2,2013-06-12 15:30:00,
2013-06-12 11:31:00,78.1,72.2,29.06,South,181,5.0,8.0,82,0.00,,,0.01,WUHU216DAVISVP2,2013-06-12 15:31:00,
2013-06-12 11:33:00,78.0,72.1,29.06,SSE,167,4.0,8.0,82,0.00,,,0.01,WUHU216DAVISVP2,2013-06-12 15:33:00,
2013-06-12 11:35:00,77.9,72.0,29.07,WSW,256,6.0,8.0,82,0.00,,,0.01,WUHU216DAVISVP2,2013-06-12 15:35:00,
2013-06-12 11:36:00,77.9,72.0,29.07,South,175,5.0,8.0,82,0.00,,,0.01,WUHU216DAVISVP2,2013-06-12 15:36:00,
2013-06-12 11:37:00,77.9,72.0,29.07,South,174,6.0,8.0,82,0.00,,,0.01,WUHU216DAVISVP2,2013-06-12 15:37:00,
2013-06-12 11:38:00,77.8,72.3,29.06,SE,124,5.0,8.0,83,0.00,,,0.01,WUHU216DAVISVP2,2013-06-12 15:38:00,
2013-06-12 11:40:00,77.8,72.3,29.05,SSE,147,2.0,8.0,83,0.00,,,0.01,WUHU216DAVISVP2,2013-06-12 15:40:00,
2013-06-12 11:42:00,77.9,72.7,29.06,SSE,147,4.0,8.0,84,0.00,,,0.01,WUHU216DAVISVP2,2013-06-12 15:42:00,
2013-06-12 11:43:00,77.9,72.7,29.06,SSE,147,2.0,8.0,84,0.00,,,0.01,WUHU216DAVISVP2,2013-06-12 15:43:00,
2013-06-12 11:45:00,77.9,72.7,29.07,SSE,152,5.0,8.0,84,0.00,,,0.01,WUHU216DAVISVP2,2013-06-12 15:45:00,
2013-06-12 11:46:00,77.9,72.7,29.07,SSE,152,6.0,8.0,84,0.00,,,0.01,WUHU216DAVISVP2,2013-06-12 15:46:00,
2013-06-12 11:47:00,77.9,72.4,29.08,SSE,152,2.0,8.0,83,0.00,,,0.01,WUHU216DAVISVP2,2013-06-12 15:47:00,
2013-06-12 11:48:00,77.9,72.4,29.08,SSE,152,1.0,8.0,83,0.00,,,0.01,WUHU216DAVISVP2,2013-06-12 15:48:00,
2013-06-12 11:51:00,78.1,72.6,29.07,SSW,198,4.0,8.0,83,0.00,,,0.01,WUHU216DAVISVP2,2013-06-12 15:51:00,
2013-06-12 11:52:00,78.2,72.7,29.06,SSW,206,2.0,8.0,83,0.00,,,0.01,WUHU216DAVISVP2,2013-06-12 15:52:00,
2013-06-12 11:53:00,78.2,72.7,29.06,SSW,206,5.0,8.0,83,0.00,,,0.01,WUHU216DAVISVP2,2013-06-12 15:53:00,
2013-06-12 11:56:00,78.3,73.1,29.05,SSE,154,0.0,8.0,84,0.00,,,0.01,WUHU216DAVISVP2,2013-06-12 15:56:00,
2013-06-12 11:58:00,78.4,73.2,29.06,SSW,197,0.0,6.0,84,0.00,,,0.01,WUHU216DAVISVP2,2013-06-12 15:58:00,
2013-06-12 12:01:00,78.5,73.0,29.06,WSW,245,0.0,7.0,83,0.00,,,0.01,WUHU216DAVISVP2,2013-06-12 16:01:00,
2013-06-12 12:03:00,78.6,72.7,29.06,SW,228,0.0,7.0,82,0.00,,,0.01,WUHU216DAVISVP2,2013-06-12 16:03:00,
2013-06-12 12:04:00,78.6,72.7,29.06,SW,228,1.0,7.0,82,0.00,,,0.01,WUHU216DAVISVP2,2013-06-12 16:04:00,
2013-06-12 12:06:00,78.6,73.1,29.07,SW,225,0.0,7.0,83,0.00,,,0.01,WUHU216DAVISVP2,2013-06-12 16:06:00,
2013-06-12 12:07:00,78.7,73.2,29.06,South,169,2.0,7.0,83,0.00,,,0.01,WUHU216DAVISVP2,2013-06-12 16:07:00,
2013-06-12 12:08:00,78.7,73.2,29.06,SSE,151,1.0,7.0,83,0.00,,,0.01,WUHU216DAVISVP2,2013-06-12 16:08:00,
2013-06-12 12:09:00,78.8,73.3,29.07,SSE,151,0.0,7.0,83,0.00,,,0.01,WUHU216DAVISVP2,2013-06-12 16:09:00,
2013-06-12 12:11:00,79.0,73.1,29.07,NW,308,1.0,7.0,82,0.00,,,0.01,WUHU216DAVISVP2,2013-06-12 16:11:00,
2013-06-12 12:12:00,79.1,73.2,29.07,NW,308,0.0,7.0,82,0.00,,,0.01,WUHU216DAVISVP2,2013-06-12 16:12:00,
2013-06-12 12:13:00,79.2,73.3,29.06,NW,308,0.0,7.0,82,0.00,,,0.01,WUHU216DAVISVP2,2013-06-12 16:13:00,
2013-06-12 12:14:00,79.3,73.4,29.06,NW,308,0.0,7.0,82,0.00,,,0.01,WUHU216DAVISVP2,2013-06-12 16:14:00,
2013-06-12 12:15:00,79.4,73.5,29.06,NW,308,0.0,7.0,82,0.00,,,0.01,WUHU216DAVISVP2,2013-06-12 16:15:00,
2013-06-12 12:17:00,79.6,73.7,29.06,SSW,202,0.0,7.0,82,0.00,,,0.01,WUHU216DAVISVP2,2013-06-12 16:17:00,
2013-06-12 12:18:00,79.8,73.9,29.06,SSW,201,0.0,7.0,82,0.00,,,0.01,WUHU216DAVISVP2,2013-06-12 16:18:00,
2013-06-12 12:19:00,79.8,73.9,29.06,South,185,6.0,7.0,82,0.00,,,0.01,WUHU216DAVISVP2,2013-06-12 16:19:00,
2013-06-12 12:20:00,79.8,73.5,29.05,South,178,7.0,7.0,81,0.00,,,0.01,WUHU216DAVISVP2,2013-06-12 16:20:00,
2013-06-12 12:22:00,79.8,73.2,29.05,SW,232,0.0,7.0,80,0.00,,,0.01,WUHU216DAVISVP2,2013-06-12 16:22:00,
2013-06-12 12:23:00,79.7,73.5,29.04,SW,232,4.0,7.0,81,0.00,,,0.01,WUHU216DAVISVP2,2013-06-12 16:23:00,
2013-06-12 12:24:00,79.7,73.5,29.04,SW,231,1.0,7.0,81,0.00,,,0.01,WUHU216DAVISVP2,2013-06-12 16:24:00,
2013-06-12 12:25:00,79.6,73.4,29.04,SW,228,1.0,7.0,81,0.00,,,0.01,WUHU216DAVISVP2,2013-06-12 16:25:00,
2013-06-12 12:27:00,79.7,73.8,29.04,WSW,252,0.0,7.0,82,0.00,,,0.01,WUHU216DAVISVP2,2013-06-12 16:27:00,
2013-06-12 12:28:00,79.7,73.8,29.05,South,172,5.0,7.0,82,0.00,,,0.01,WUHU216DAVISVP2,2013-06-12 16:28:00,
2013-06-12 12:29:00,79.8,73.9,29.05,South,180,1.0,7.0,82,0.00,,,0.01,WUHU216DAVISVP2,2013-06-12 16:29:00,
2013-06-12 12:30:00,79.8,73.9,29.04,South,174,1.0,7.0,82,0.00,,,0.01,WUHU216DAVISVP2,2013-06-12 16:30:00,
2013-06-12 12:32:00,80.0,74.1,29.04,SSW,208,2.0,7.0,82,0.00,,,0.01,WUHU216DAVISVP2,2013-06-12 16:32:00,
2013-06-12 12:33:00,80.1,73.8,29.04,SSE,151,4.0,7.0,81,0.00,,,0.01,WUHU216DAVISVP2,2013-06-12 16:33:00,
2013-06-12 12:34:00,80.2,73.9,29.04,South,183,1.0,9.0,81,0.00,,,0.01,WUHU216DAVISVP2,2013-06-12 16:34:00,
2013-06-12 12:35:00,80.2,73.9,29.04,South,183,0.0,9.0,81,0.00,,,0.01,WUHU216DAVISVP2,2013-06-12 16:35:00,
2013-06-12 12:37:00,80.3,74.4,29.05,SSW,199,4.0,9.0,82,0.00,,,0.01,WUHU216DAVISVP2,2013-06-12 16:37:00,
2013-06-12 12:38:00,80.4,74.1,29.05,South,189,0.0,9.0,81,0.00,,,0.01,WUHU216DAVISVP2,2013-06-12 16:38:00,
2013-06-12 12:39:00,80.5,73.9,29.04,SSW,199,5.0,9.0,80,0.00,,,0.01,WUHU216DAVISVP2,2013-06-12 16:39:00,
2013-06-12 12:40:00,80.5,73.9,29.04,South,177,5.0,12.0,80,0.00,,,0.01,WUHU216DAVISVP2,2013-06-12 16:40:00,
2013-06-12 12:42:00,80.6,74.0,29.04,South,175,7.0,12.0,80,0.00,,,0.01,WUHU216DAVISVP2,2013-06-12 16:42:00,
2013-06-12 12:43:00,80.5,73.9,29.04,South,189,1.0,12.0,80,0.00,,,0.01,WUHU216DAVISVP2,2013-06-12 16:43:00,
2013-06-12 12:44:00,80.4,73.4,29.04,South,178,8.0,12.0,79,0.00,,,0.01,WUHU216DAVISVP2,2013-06-12 16:44:00,
2013-06-12 12:45:00,80.4,73.4,29.04,South,179,6.0,12.0,79,0.00,,,0.01,WUHU216DAVISVP2,2013-06-12 16:45:00,
2013-06-12 12:46:00,80.4,73.4,29.04,SSW,196,5.0,12.0,79,0.00,,,0.01,WUHU216DAVISVP2,2013-06-12 16:46:00,
2013-06-12 12:47:00,80.3,73.7,29.04,SSW,198,2.0,12.0,80,0.00,,,0.01,WUHU216DAVISVP2,2013-06-12 16:47:00,
2013-06-12 12:48:00,80.3,73.7,29.04,SSW,193,5.0,12.0,80,0.00,,,0.01,WUHU216DAVISVP2,2013-06-12 16:48:00,
2013-06-12 12:50:00,80.3,73.7,29.04,South,182,8.0,16.0,80,0.00,,,0.01,WUHU216DAVISVP2,2013-06-12 16:50:00,
2013-06-12 12:51:00,80.3,73.7,29.04,SW,232,6.0,16.0,80,0.00,,,0.01,WUHU216DAVISVP2,2013-06-12 16:51:00,
2013-06-12 12:52:00,80.3,73.7,29.04,SW,231,5.0,16.0,80,0.00,,,0.01,WUHU216DAVISVP2,2013-06-12 16:52:00,
2013-06-12 12:53:00,80.3,73.7,29.04,WSW,238,13.0,16.0,80,0.00,,,0.01,WUHU216DAVISVP2,2013-06-12 16:53:00,
2013-06-12 12:55:00,80.3,73.3,29.05,SW,214,6.0,16.0,79,0.00,,,0.01,WUHU216DAVISVP2,2013-06-12 16:55:00,
2013-06-12 12:56:00,80.4,73.8,29.04,SW,217,6.0,16.0,80,0.00,,,0.01,WUHU216DAVISVP2,2013-06-12 16:56:00,
2013-06-12 12:58:00,80.4,73.8,29.04,WSW,249,6.0,16.0,80,0.00,,,0.01,WUHU216DAVISVP2,2013-06-12 16:58:00,
2013-06-12 12:59:00,80.4,73.8,29.04,South,186,9.0,16.0,80,0.00,,,0.01,WUHU216DAVISVP2,2013-06-12 16:59:00,
2013-06-12 13:00:00,80.4,73.4,29.04,SSW,194,3.0,16.0,79,0.00,,,0.01,WUHU216DAVISVP2,2013-06-12 17:00:00,
2013-06-12 13:01:00,80.5,73.9,29.04,WNW,282,4.0,16.0,80,0.00,,,0.01,WUHU216DAVISVP2,2013-06-12 17:01:00,
2013-06-12 13:03:00,80.5,73.9,29.04,SSW,199,5.0,16.0,80,0.00,,,0.01,WUHU216DAVISVP2,2013-06-12 17:03:00,
2013-06-12 13:04:00,80.5,73.5,29.04,WSW,241,9.0,16.0,79,0.00,,,0.01,WUHU216DAVISVP2,2013-06-12 17:04:00,
2013-06-12 13:05:00,80.6,73.6,29.04,WSW,256,5.0,16.0,79,0.00,,,0.01,WUHU216DAVISVP2,2013-06-12 17:05:00,
2013-06-12 13:06:00,80.6,74.0,29.04,South,184,4.0,16.0,80,0.00,,,0.01,WUHU216DAVISVP2,2013-06-12 17:06:00,
2013-06-12 13:08:00,80.6,73.6,29.03,WSW,251,11.0,16.0,79,0.00,,,0.01,WUHU216DAVISVP2,2013-06-12 17:08:00,
2013-06-12 13:09:00,80.6,73.6,29.03,WSW,247,7.0,15.0,79,0.00,,,0.01,WUHU216DAVISVP2,2013-06-12 17:09:00,
2013-06-12 13:10:00,80.6,73.6,29.03,SW,215,5.0,15.0,79,0.00,,,0.01,WUHU216DAVISVP2,2013-06-12 17:10:00,
2013-06-12 13:11:00,80.7,74.1,29.03,South,175,6.0,15.0,80,0.00,,,0.01,WUHU216DAVISVP2,2013-06-12 17:11:00,
2013-06-12 13:13:00,80.7,73.7,29.03,SSW,204,4.0,15.0,79,0.00,,,0.01,WUHU216DAVISVP2,2013-06-12 17:13:00,
2013-06-12 13:14:00,80.7,74.1,29.03,SSW,211,2.0,15.0,80,0.00,,,0.01,WUHU216DAVISVP2,2013-06-12 17:14:00,
2013-06-12 13:15:00,80.7,74.1,29.03,SSW,204,1.0,15.0,80,0.00,,,0.01,WUHU216DAVISVP2,2013-06-12 17:15:00,
2013-06-12 13:16:00,80.7,74.1,29.03,South,180,6.0,15.0,80,0.00,,,0.01,WUHU216DAVISVP2,2013-06-12 17:16:00,
2013-06-12 13:17:00,80.8,74.2,29.03,SW,224,5.0,15.0,80,0.00,,,0.01,WUHU216DAVISVP2,2013-06-12 17:17:00,
2013-06-12 13:18:00,80.8,74.2,29.03,South,180,5.0,15.0,80,0.00,,,0.01,WUHU216DAVISVP2,2013-06-12 17:18:00,
2013-06-12 13:20:00,80.8,74.2,29.02,South,182,11.0,15.0,80,0.00,,,0.01,WUHU216DAVISVP2,2013-06-12 17:20:00,
2013-06-12 13:21:00,80.8,74.2,29.02,South,173,8.0,15.0,80,0.00,,,0.01,WUHU216DAVISVP2,2013-06-12 17:21:00,
2013-06-12 13:22:00,80.8,74.2,29.02,WSW,237,8.0,15.0,80,0.00,,,0.01,WUHU216DAVISVP2,2013-06-12 17:22:00,
2013-06-12 13:23:00,80.8,74.2,29.01,West,270,4.0,15.0,80,0.00,,,0.01,WUHU216DAVISVP2,2013-06-12 17:23:00,
2013-06-12 13:25:00,80.8,74.2,29.01,SSW,208,3.0,15.0,80,0.00,,,0.01,WUHU216DAVISVP2,2013-06-12 17:25:00,
2013-06-12 13:26:00,80.8,74.2,29.01,SW,215,1.0,15.0,80,0.00,,,0.01,WUHU216DAVISVP2,2013-06-12 17:26:00,
2013-06-12 13:27:00,80.9,74.3,29.01,SSW,199,6.0,15.0,80,0.00,,,0.01,WUHU216DAVISVP2,2013-06-12 17:27:00,
2013-06-12 13:28:00,80.9,74.3,29.01,WSW,246,8.0,15.0,80,0.00,,,0.01,WUHU216DAVISVP2,2013-06-12 17:28:00,
2013-06-12 13:30:00,80.9,73.9,29.00,South,179,10.0,15.0,79,0.00,,,0.01,WUHU216DAVISVP2,2013-06-12 17:30:00,
2013-06-12 13:31:00,80.9,73.9,29.00,WSW,251,7.0,15.0,79,0.00,,,0.01,WUHU216DAVISVP2,2013-06-12 17:31:00,
2013-06-12 13:32:00,80.9,73.9,29.00,South,178,10.0,15.0,79,0.00,,,0.01,WUHU216DAVISVP2,2013-06-12 17:32:00,
2013-06-12 13:33:00,80.9,73.9,29.00,SSW,206,7.0,15.0,79,0.00,,,0.01,WUHU216DAVISVP2,2013-06-12 17:33:00,
2013-06-12 13:35:00,80.9,73.9,29.00,SSW,207,6.0,15.0,79,0.00,,,0.01,WUHU216DAVISVP2,2013-06-12 17:35:00,
2013-06-12 13:36:00,80.9,74.3,29.00,SSW,212,8.0,15.0,80,0.00,,,0.01,WUHU216DAVISVP2,2013-06-12 17:36:00,
2013-06-12 13:38:00,80.9,73.9,29.00,SW,216,1.0,15.0,79,0.00,,,0.01,WUHU216DAVISVP2,2013-06-12 17:38:00,
2013-06-12 13:40:00,80.9,73.9,29.00,SSW,211,2.0,15.0,79,0.00,,,0.01,WUHU216DAVISVP2,2013-06-12 17:40:00,
2013-06-12 13:41:00,80.9,73.9,29.00,WSW,240,10.0,15.0,79,0.00,,,0.01,WUHU216DAVISVP2,2013-06-12 17:41:00,
2013-06-12 13:43:00,80.9,73.9,29.00,SW,214,7.0,15.0,79,0.00,,,0.01,WUHU216DAVISVP2,2013-06-12 17:43:00,
2013-06-12 13:45:00,81.0,74.0,29.00,SSW,206,2.0,15.0,79,0.00,,,0.01,WUHU216DAVISVP2,2013-06-12 17:45:00,
2013-06-12 13:47:00,81.1,73.7,28.99,WSW,250,8.0,13.0,78,0.00,,,0.01,WUHU216DAVISVP2,2013-06-12 17:47:00,
2013-06-12 13:48:00,81.1,74.1,28.99,South,183,2.0,13.0,79,0.00,,,0.01,WUHU216DAVISVP2,2013-06-12 17:48:00,
2013-06-12 13:49:00,81.1,73.7,28.99,SSW,213,2.0,13.0,78,0.00,,,0.01,WUHU216DAVISVP2,2013-06-12 17:49:00,
2013-06-12 13:50:00,81.2,74.2,29.00,SSW,194,6.0,12.0,79,0.00,,,0.01,WUHU216DAVISVP2,2013-06-12 17:50:00,
2013-06-12 13:52:00,81.2,73.8,28.99,South,183,4.0,12.0,78,0.00,,,0.01,WUHU216DAVISVP2,2013-06-12 17:52:00,
2013-06-12 13:53:00,81.2,74.2,28.99,SW,220,1.0,12.0,79,0.00,,,0.01,WUHU216DAVISVP2,2013-06-12 17:53:00,
2013-06-12 13:54:00,81.2,74.2,28.99,South,191,3.0,12.0,79,0.00,,,0.01,WUHU216DAVISVP2,2013-06-12 17:54:00,
2013-06-12 13:55:00,81.2,74.2,28.99,SW,214,0.0,12.0,79,0.00,,,0.01,WUHU216DAVISVP2,2013-06-12 17:55:00,
2013-06-12 13:57:00,81.1,74.1,28.98,South,191,1.0,12.0,79,0.00,,,0.01,WUHU216DAVISVP2,2013-06-12 17:57:00,
2013-06-12 13:59:00,81.1,74.1,28.98,South,180,12.0,12.0,79,0.00,,,0.01,WUHU216DAVISVP2,2013-06-12 17:59:00,
2013-06-12 14:00:00,81.1,73.7,28.98,SSW,199,4.0,13.0,78,0.00,,,0.01,WUHU216DAVISVP2,2013-06-12 18:00:00,
2013-06-12 14:02:00,81.2,73.8,28.98,SW,215,4.0,13.0,78,0.00,,,0.01,WUHU216DAVISVP2,2013-06-12 18:02:00,
2013-06-12 14:04:00,81.2,73.8,28.98,SSW,212,3.0,13.0,78,0.00,,,0.01,WUHU216DAVISVP2,2013-06-12 18:04:00,
2013-06-12 14:05:00,81.3,73.9,28.98,WSW,245,8.0,13.0,78,0.00,,,0.01,WUHU216DAVISVP2,2013-06-12 18:05:00,
2013-06-12 14:07:00,81.4,74.0,28.98,SW,232,0.0,13.0,78,0.00,,,0.01,WUHU216DAVISVP2,2013-06-12 18:07:00,
2013-06-12 14:09:00,81.5,73.8,28.99,SW,215,5.0,13.0,77,0.00,,,0.01,WUHU216DAVISVP2,2013-06-12 18:09:00,
2013-06-12 14:10:00,81.6,73.8,28.99,WSW,239,1.0,13.0,77,0.00,,,0.01,WUHU216DAVISVP2,2013-06-12 18:10:00,
2013-06-12 14:13:00,81.8,74.0,28.99,SW,223,3.0,13.0,77,0.00,,,0.01,WUHU216DAVISVP2,2013-06-12 18:13:00,
2013-06-12 14:14:00,81.8,74.0,28.99,SSW,208,4.0,13.0,77,0.00,,,0.01,WUHU216DAVISVP2,2013-06-12 18:14:00,
2013-06-12 14:15:00,81.9,74.1,28.99,South,184,5.0,13.0,77,0.00,,,0.01,WUHU216DAVISVP2,2013-06-12 18:15:00,
2013-06-12 14:18:00,82.0,74.2,28.98,SW,231,5.0,13.0,77,0.00,,,0.01,WUHU216DAVISVP2,2013-06-12 18:18:00,
2013-06-12 14:19:00,81.9,73.8,28.98,South,191,6.0,13.0,76,0.00,,,0.01,WUHU216DAVISVP2,2013-06-12 18:19:00,
2013-06-12 14:20:00,81.9,74.1,28.98,SSW,206,5.0,13.0,77,0.00,,,0.01,WUHU216DAVISVP2,2013-06-12 18:20:00,
2013-06-12 14:23:00,81.9,74.1,28.98,SSW,198,0.0,13.0,77,0.00,,,0.01,WUHU216DAVISVP2,2013-06-12 18:23:00,
2013-06-12 14:24:00,81.9,74.1,28.98,SW,225,10.0,13.0,77,0.00,,,0.01,WUHU216DAVISVP2,2013-06-12 18:24:00,
2013-06-12 14:25:00,81.9,74.1,28.98,SSW,205,6.0,13.0,77,0.00,,,0.01,WUHU216DAVISVP2,2013-06-12 18:25:00,
2013-06-12 14:28:00,81.9,74.1,28.97,SW,219,6.0,13.0,77,0.00,,,0.01,WUHU216DAVISVP2,2013-06-12 18:28:00,
2013-06-12 14:29:00,81.9,74.1,28.97,SSE,149,3.0,13.0,77,0.00,,,0.01,WUHU216DAVISVP2,2013-06-12 18:29:00,
2013-06-12 14:30:00,81.9,74.1,28.95,SSE,156,9.0,13.0,77,0.00,,,0.01,WUHU216DAVISVP2,2013-06-12 18:30:00,
2013-06-12 14:31:00,81.8,74.0,28.95,South,169,8.0,12.0,77,0.00,,,0.01,WUHU216DAVISVP2,2013-06-12 18:31:00,
2013-06-12 14:33:00,81.7,73.9,28.95,WSW,240,13.0,13.0,77,0.00,,,0.01,WUHU216DAVISVP2,2013-06-12 18:33:00,
2013-06-12 14:34:00,81.7,73.9,28.96,WSW,247,6.0,13.0,77,0.00,,,0.01,WUHU216DAVISVP2,2013-06-12 18:34:00,
2013-06-12 14:35:00,81.7,73.9,28.97,SSW,201,2.0,13.0,77,0.00,,,0.01,WUHU216DAVISVP2,2013-06-12 18:35:00,
2013-06-12 14:36:00,81.8,74.0,28.97,SSW,203,2.0,13.0,77,0.00,,,0.01,WUHU216DAVISVP2,2013-06-12 18:36:00,
2013-06-12 14:38:00,81.9,74.1,28.96,SSW,192,2.0,13.0,77,0.00,,,0.01,WUHU216DAVISVP2,2013-06-12 18:38:00,
2013-06-12 14:39:00,82.0,74.2,28.96,South,181,5.0,13.0,77,0.00,,,0.01,WUHU216DAVISVP2,2013-06-12 18:39:00,
2013-06-12 14:40:00,82.0,74.2,28.96,South,182,9.0,13.0,77,0.00,,,0.01,WUHU216DAVISVP2,2013-06-12 18:40:00,
2013-06-12 14:41:00,82.0,74.2,28.96,SSW,195,1.0,13.0,77,0.00,,,0.01,WUHU216DAVISVP2,2013-06-12 18:41:00,
2013-06-12 14:44:00,82.1,74.0,28.96,South,191,4.0,14.0,76,0.00,,,0.01,WUHU216DAVISVP2,2013-06-12 18:44:00,
2013-06-12 14:45:00,82.2,74.4,28.96,South,172,6.0,14.0,77,0.00,,,0.01,WUHU216DAVISVP2,2013-06-12 18:45:00,
2013-06-12 14:46:00,82.2,74.4,28.97,SSE,161,5.0,14.0,77,0.00,,,0.01,WUHU216DAVISVP2,2013-06-12 18:46:00,
2013-06-12 14:49:00,82.3,74.5,28.97,SSW,192,5.0,14.0,77,0.00,,,0.01,WUHU216DAVISVP2,2013-06-12 18:49:00,
2013-06-12 14:50:00,82.3,74.2,28.97,South,187,5.0,14.0,76,0.00,,,0.01,WUHU216DAVISVP2,2013-06-12 18:50:00,
2013-06-12 14:51:00,82.3,74.2,28.96,WSW,250,8.0,14.0,76,0.00,,,0.01,WUHU216DAVISVP2,2013-06-12 18:51:00,
2013-06-12 14:54:00,82.5,74.7,28.96,WSW,240,4.0,14.0,77,0.00,,,0.01,WUHU216DAVISVP2,2013-06-12 18:54:00,
2013-06-12 14:55:00,82.5,74.3,28.96,South,189,8.0,14.0,76,0.00,,,0.01,WUHU216DAVISVP2,2013-06-12 18:55:00,
2013-06-12 14:56:00,82.5,74.3,28.96,SSW,193,7.0,15.0,76,0.00,,,0.01,WUHU216DAVISVP2,2013-06-12 18:56:00,
2013-06-12 14:59:00,82.5,74.3,28.95,WSW,238,8.0,15.0,76,0.00,,,0.01,WUHU216DAVISVP2,2013-06-12 18:59:00,
2013-06-12 15:00:00,82.5,74.3,28.95,SW,235,6.0,15.0,76,0.00,,,0.01,WUHU216DAVISVP2,2013-06-12 19:00:00,
2013-06-12 15:01:00,82.6,74.4,28.95,South,190,8.0,19.0,76,0.00,,,0.01,WUHU216DAVISVP2,2013-06-12 19:01:00,
2013-06-12 15:04:00,82.7,74.2,28.95,South,172,6.0,19.0,75,0.00,,,0.01,WUHU216DAVISVP2,2013-06-12 19:04:00,
2013-06-12 15:05:00,82.7,74.2,28.95,SW,235,9.0,19.0,75,0.00,,,0.01,WUHU216DAVISVP2,2013-06-12 19:05:00,
2013-06-12 15:06:00,82.7,74.2,28.95,SW,220,6.0,19.0,75,0.00,,,0.01,WUHU216DAVISVP2,2013-06-12 19:06:00,
2013-06-12 15:07:00,82.7,74.2,28.94,SW,233,8.0,19.0,75,0.00,,,0.01,WUHU216DAVISVP2,2013-06-12 19:07:00,
2013-06-12 15:09:00,82.8,74.3,28.94,South,186,7.0,19.0,75,0.00,,,0.01,WUHU216DAVISVP2,2013-06-12 19:09:00,
2013-06-12 15:10:00,82.9,74.3,28.94,WSW,253,11.0,19.0,75,0.00,,,0.01,WUHU216DAVISVP2,2013-06-12 19:10:00,
2013-06-12 15:11:00,82.9,74.3,28.94,South,189,7.0,20.0,75,0.00,,,0.01,WUHU216DAVISVP2,2013-06-12 19:11:00,
2013-06-12 15:12:00,83.0,74.1,28.94,WSW,239,10.0,20.0,74,0.00,,,0.01,WUHU216DAVISVP2,2013-06-12 19:12:00,
2013-06-12 15:14:00,83.2,74.0,28.93,WSW,240,14.0,20.0,74,0.00,,,0.01,WUHU216DAVISVP2,2013-06-12 19:14:00,
2013-06-12 15:15:00,83.3,74.1,28.93,SW,228,7.0,20.0,74,0.00,,,0.01,WUHU216DAVISVP2,2013-06-12 19:15:00,
2013-06-12 15:16:00,83.4,74.2,28.93,SW,229,12.0,20.0,74,0.00,,,0.01,WUHU216DAVISVP2,2013-06-12 19:16:00,
2013-06-12 15:17:00,83.4,74.4,28.93,WSW,238,6.0,20.0,74,0.00,,,0.01,WUHU216DAVISVP2,2013-06-12 19:17:00,
2013-06-12 15:20:00,83.6,74.6,28.94,South,185,5.0,20.0,74,0.00,,,0.01,WUHU216DAVISVP2,2013-06-12 19:20:00,
2013-06-12 15:21:00,83.7,74.3,28.94,WSW,245,8.0,20.0,73,0.00,,,0.01,WUHU216DAVISVP2,2013-06-12 19:21:00,
2013-06-12 15:22:00,83.8,74.4,28.95,WNW,282,6.0,20.0,73,0.00,,,0.01,WUHU216DAVISVP2,2013-06-12 19:22:00,
2013-06-12 15:25:00,84.0,74.2,28.95,SW,216,7.0,20.0,72,0.00,,,0.01,WUHU216DAVISVP2,2013-06-12 19:25:00,
2013-06-12 15:26:00,84.1,73.9,28.95,WSW,246,11.0,22.0,71,0.00,,,0.01,WUHU216DAVISVP2,2013-06-12 19:26:00,
2013-06-12 15:28:00,84.3,73.9,28.95,WSW,245,12.0,22.0,71,0.00,,,0.01,WUHU216DAVISVP2,2013-06-12 19:28:00,
2013-06-12 15:30:00,84.5,74.5,28.95,South,189,14.0,22.0,72,0.00,,,0.01,WUHU216DAVISVP2,2013-06-12 19:30:00,
2013-06-12 15:31:00,84.5,73.6,28.95,WSW,258,9.0,22.0,70,0.00,,,0.01,WUHU216DAVISVP2,2013-06-12 19:31:00,
2013-06-12 15:32:00,84.6,74.2,28.95,SSW,192,8.0,22.0,71,0.00,,,0.01,WUHU216DAVISVP2,2013-06-12 19:32:00,
2013-06-12 15:33:00,84.7,74.3,28.95,SSW,197,7.0,23.0,71,0.00,,,0.01,WUHU216DAVISVP2,2013-06-12 19:33:00,
2013-06-12 15:35:00,84.8,74.3,28.95,WSW,245,7.0,23.0,71,0.00,,,0.01,WUHU216DAVISVP2,2013-06-12 19:35:00,
2013-06-12 15:36:00,84.9,74.4,28.95,WSW,250,12.0,23.0,71,0.00,,,0.01,WUHU216DAVISVP2,2013-06-12 19:36:00,
2013-06-12 15:37:00,84.9,74.0,28.95,WSW,243,14.0,23.0,70,0.00,,,0.01,WUHU216DAVISVP2,2013-06-12 19:37:00,
2013-06-12 15:38:00,85.1,74.5,28.95,SSW,201,15.0,26.0,70,0.00,,,0.01,WUHU216DAVISVP2,2013-06-12 19:38:00,
2013-06-12 15:41:00,85.2,74.3,28.95,WSW,245,21.0,26.0,70,0.00,,,0.01,WUHU216DAVISVP2,2013-06-12 19:41:00,
2013-06-12 15:42:00,85.1,73.8,28.95,WSW,238,15.0,27.0,69,0.00,,,0.01,WUHU216DAVISVP2,2013-06-12 19:42:00,
2013-06-12 15:44:00,85.2,73.9,28.95,WSW,256,14.0,27.0,69,0.00,,,0.01,WUHU216DAVISVP2,2013-06-12 19:44:00,
2013-06-12 15:46:00,85.4,74.8,28.95,SW,235,10.0,27.0,70,0.00,,,0.01,WUHU216DAVISVP2,2013-06-12 19:46:00,
2013-06-12 15:47:00,85.4,74.3,28.94,WSW,247,16.0,27.0,69,0.00,,,0.01,WUHU216DAVISVP2,2013-06-12 19:47:00,
2013-06-12 15:49:00,85.4,74.3,28.94,SSW,210,5.0,27.0,69,0.00,,,0.01,WUHU216DAVISVP2,2013-06-12 19:49:00,
2013-06-12 15:51:00,85.4,74.3,28.94,SSW,203,8.0,27.0,69,0.00,,,0.01,WUHU216DAVISVP2,2013-06-12 19:51:00,
2013-06-12 15:52:00,85.4,74.3,28.94,WSW,242,13.0,27.0,69,0.00,,,0.01,WUHU216DAVISVP2,2013-06-12 19:52:00,
2013-06-12 15:54:00,85.4,74.1,28.94,SSW,203,9.0,27.0,69,0.00,,,0.01,WUHU216DAVISVP2,2013-06-12 19:54:00,
2013-06-12 15:56:00,85.3,74.4,28.94,WSW,249,23.0,27.0,70,0.00,,,0.01,WUHU216DAVISVP2,2013-06-12 19:56:00,
2013-06-12 15:57:00,85.2,74.3,28.94,SW,229,7.0,27.0,70,0.00,,,0.01,WUHU216DAVISVP2,2013-06-12 19:57:00,
2013-06-12 15:59:00,85.3,74.8,28.94,WSW,239,4.0,27.0,71,0.00,,,0.01,WUHU216DAVISVP2,2013-06-12 19:59:00,
2013-06-12 16:01:00,85.5,75.0,28.94,WSW,248,12.0,25.0,71,0.00,,,0.01,WUHU216DAVISVP2,2013-06-12 20:01:00,
2013-06-12 16:02:00,85.5,75.3,28.93,SW,228,4.0,25.0,71,0.00,,,0.01,WUHU216DAVISVP2,2013-06-12 20:02:00,
2013-06-12 16:03:00,85.5,75.3,28.93,SSW,207,2.0,25.0,71,0.00,,,0.01,WUHU216DAVISVP2,2013-06-12 20:03:00,
2013-06-12 16:04:00,85.5,74.8,28.93,SW,236,5.0,25.0,70,0.00,,,0.01,WUHU216DAVISVP2,2013-06-12 20:04:00,
2013-06-12 16:06:00,85.5,75.3,28.93,SW,220,10.0,25.0,71,0.00,,,0.01,WUHU216DAVISVP2,2013-06-12 20:06:00,
2013-06-12 16:07:00,85.5,74.8,28.92,SSW,199,10.0,25.0,70,0.00,,,0.01,WUHU216DAVISVP2,2013-06-12 20:07:00,
2013-06-12 16:08:00,85.5,74.8,28.92,SSW,199,10.0,25.0,70,0.00,,,0.01,WUHU216DAVISVP2,2013-06-12 20:08:00,
2013-06-12 16:09:00,85.4,74.3,28.92,WSW,243,11.0,23.0,69,0.00,,,0.01,WUHU216DAVISVP2,2013-06-12 20:09:00,